Observation data for Amarillo 7 South Southeast on 03/12/2018      Previous  Date  Next       Current Mesonet Observations  Soil Data  Daily Summary Page  Observations in Plain Language
KAM1 120500Z 27000KT M00/M10 A3037 RMK A01 T10021103  RH  046%=      5-min Rain = 0
KAM1 120501Z 25001KT M00/M10 A3037 RMK A01 T10031102  RH  047%=      5-min Rain = 0
KAM1 120502Z 25002KT M01/M10 A3037 RMK A01 T10051101  RH  048%=      5-min Rain = 0
KAM1 120503Z 25002KT M01/M10 A3037 RMK A01 T10061100  RH  049%=      5-min Rain = 0
KAM1 120504Z 24002KT M01/M10 A3037 RMK A01 T10071099  RH  050%=      5-min Rain = 0
KAM1 120505Z 24001KT M01/M10 A3037 RMK A01 T10061098  RH  050%=      5-min Rain = 0
KAM1 120506Z 21000KT M01/M10 A3037 RMK A01 T10051097  RH  050%=      5-min Rain = 0
KAM1 120507Z 21001KT M00/M10 A3037 RMK A01 T10031097  RH  049%=      5-min Rain = 0
KAM1 120508Z 21001KT M00/M10 A3037 RMK A01 T10031097  RH  049%=      5-min Rain = 0
KAM1 120509Z 20000KT M00/M10 A3037 RMK A01 T10041099  RH  049%=      5-min Rain = 0
KAM1 120510Z 12000KT M00/M10 A3037 RMK A01 T10041100  RH  048%=      5-min Rain = 0
KAM1 120511Z 11001KT M01/M10 A3037 RMK A01 T10051101  RH  048%=      5-min Rain = 0
KAM1 120512Z 10001KT M01/M10 A3037 RMK A01 T10051103  RH  048%=      5-min Rain = 0
KAM1 120513Z 10001KT M01/M10 A3037 RMK A01 T10061104  RH  047%=      5-min Rain = 0
KAM1 120514Z 10000KT M01/M10 A3037 RMK A01 T10061104  RH  047%=      5-min Rain = 0
KAM1 120515Z 10000KT M01/M10 A3037 RMK A01 T10051104  RH  047%=      5-min Rain = 0
KAM1 120516Z 00000KT M01/M10 A3037 RMK A01 T10051104  RH  047%=      5-min Rain = 0
KAM1 120517Z 00000KT M00/M10 A3037 RMK A01 T10041103  RH  047%=      5-min Rain = 0
KAM1 120518Z 00000KT M00/M10 A3037 RMK A01 T10031103  RH  047%=      5-min Rain = 0
KAM1 120519Z 00000KT M00/M10 A3037 RMK A01 T10021103  RH  047%=      5-min Rain = 0
KAM1 120520Z 00000KT M00/M10 A3037 RMK A01 T10031102  RH  047%=      5-min Rain = 0
KAM1 120521Z 23000KT M01/M10 A3037 RMK A01 T10051102  RH  048%=      5-min Rain = 0
KAM1 120522Z 24001KT M01/M10 A3037 RMK A01 T10081103  RH  048%=      5-min Rain = 0
KAM1 120523Z 24002KT M01/M10 A3037 RMK A01 T10101104  RH  049%=      5-min Rain = 0
KAM1 120524Z 25002KT M01/M10 A3037 RMK A01 T10111104  RH  049%=      5-min Rain = 0
KAM1 120525Z 25002KT M01/M11 A3037 RMK A01 T10131105  RH  049%=      5-min Rain = 0
KAM1 120526Z 25002KT M01/M11 A3037 RMK A01 T10131106  RH  049%=      5-min Rain = 0
KAM1 120527Z 26001KT M01/M11 A3037 RMK A01 T10131106  RH  049%=      5-min Rain = 0
KAM1 120528Z 26000KT M01/M11 A3037 RMK A01 T10121105  RH  049%=      5-min Rain = 0
KAM1 120529Z 00000KT M01/M11 A3037 RMK A01 T10111105  RH  049%=      5-min Rain = 0
KAM1 120530Z 00000KT M01/M10 A3037 RMK A01 T10091104  RH  049%=      5-min Rain = 0
KAM1 120531Z 00000KT M01/M10 A3037 RMK A01 T10061103  RH  048%=      5-min Rain = 0
KAM1 120532Z 00000KT M00/M10 A3037 RMK A01 T10031103  RH  047%=      5-min Rain = 0
KAM1 120533Z 00000KT 00/10 A3037 RMK A01 T00-00-102  RH  046%=      5-min Rain = 0
KAM1 120534Z 26000KT 00/M10 A3037 RMK A01 T00031102  RH  045%=      5-min Rain = 0
KAM1 120535Z 26001KT 01/M10 A3037 RMK A01 T00061101  RH  045%=      5-min Rain = 0
KAM1 120536Z 32001KT 01/M10 A3037 RMK A01 T00091100  RH  044%=      5-min Rain = 0
KAM1 120537Z 06001KT 01/M10 A3037 RMK A01 T00101101  RH  043%=      5-min Rain = 0
KAM1 120538Z 05001KT 01/M10 A3037 RMK A01 T00091103  RH  043%=      5-min Rain = 0
KAM1 120539Z 05001KT 01/M10 A3037 RMK A01 T00071103  RH  043%=      5-min Rain = 0
KAM1 120540Z 05001KT 00/M11 A3037 RMK A01 T00031105  RH  044%=      5-min Rain = 0
KAM1 120541Z 04001KT M00/M11 A3037 RMK A01 T10031108  RH  045%=      5-min Rain = 0
KAM1 120542Z 05000KT M01/M11 A3037 RMK A01 T10091108  RH  047%=      5-min Rain = 0
KAM1 120543Z 00000KT M01/M11 A3037 RMK A01 T10131108  RH  048%=      5-min Rain = 0
KAM1 120544Z 00000KT M02/M11 A3037 RMK A01 T10151107  RH  050%=      5-min Rain = 0
KAM1 120545Z 00000KT M02/M11 A3037 RMK A01 T10171106  RH  051%=      5-min Rain = 0
KAM1 120546Z 00000KT M02/M11 A3037 RMK A01 T10181105  RH  051%=      5-min Rain = 0
KAM1 120547Z 00000KT M02/M11 A3037 RMK A01 T10201105  RH  052%=      5-min Rain = 0
KAM1 120548Z 00000KT M02/M10 A3037 RMK A01 T10201104  RH  053%=      5-min Rain = 0
KAM1 120549Z 27001KT M02/M10 A3037 RMK A01 T10201104  RH  053%=      5-min Rain = 0
KAM1 120550Z 27001KT M02/M11 A3037 RMK A01 T10221105  RH  053%=      5-min Rain = 0
KAM1 120551Z 27001KT M02/M11 A3037 RMK A01 T10241106  RH  053%=      5-min Rain = 0
KAM1 120552Z 27001KT M03/M11 A3037 RMK A01 T10271106  RH  054%=      5-min Rain = 0
KAM1 120553Z 27001KT M03/M11 A3037 RMK A01 T10291105  RH  056%=      5-min Rain = 0
KAM1 120554Z 27001KT M03/M10 A3037 RMK A01 T10301104  RH  057%=      5-min Rain = 0
KAM1 120555Z 28001KT M03/M10 A3037 RMK A01 T10291102  RH  057%=      5-min Rain = 0
KAM1 120556Z 28001KT M03/M10 A3037 RMK A01 T10261099  RH  057%=      5-min Rain = 0
KAM1 120557Z 28001KT M02/M10 A3037 RMK A01 T10221098  RH  056%=      5-min Rain = 0
KAM1 120558Z 29001KT M02/M10 A3037 RMK A01 T10181098  RH  054%=      5-min Rain = 0
KAM1 120559Z 29001KT M02/M10 A3037 RMK A01 T10171100  RH  053%=      5-min Rain = 0
KAM1 120600Z 29002KT M02/M10 A3037 RMK A01 T10161101  RH  052%=      5-min Rain = 0
KAM1 120601Z 29002KT M02/M10 A3037 RMK A01 T10161102  RH  052%=      5-min Rain = 0
KAM1 120602Z 29002KT M02/M10 A3037 RMK A01 T10161103  RH  052%=      5-min Rain = 0
KAM1 120603Z 29002KT M02/M10 A3037 RMK A01 T10151103  RH  051%=      5-min Rain = 0
KAM1 120604Z 29002KT M01/M10 A3037 RMK A01 T10141103  RH  051%=      5-min Rain = 0
KAM1 120605Z 29002KT M01/M10 A3037 RMK A01 T10131103  RH  050%=      5-min Rain = 0
KAM1 120606Z 29002KT M01/M10 A3037 RMK A01 T10131104  RH  050%=      5-min Rain = 0
KAM1 120607Z 29001KT M01/M10 A3037 RMK A01 T10131104  RH  050%=      5-min Rain = 0
KAM1 120608Z 29001KT M01/M10 A3037 RMK A01 T10121102  RH  050%=      5-min Rain = 0
KAM1 120609Z 29001KT M01/M10 A3037 RMK A01 T10101101  RH  050%=      5-min Rain = 0
KAM1 120610Z 29001KT M01/M10 A3037 RMK A01 T10091101  RH  050%=      5-min Rain = 0
KAM1 120611Z 29001KT M01/M10 A3037 RMK A01 T10081101  RH  049%=      5-min Rain = 0
KAM1 120612Z 29001KT M01/M10 A3037 RMK A01 T10071100  RH  049%=      5-min Rain = 0
KAM1 120613Z 29001KT M01/M10 A3037 RMK A01 T10061100  RH  049%=      5-min Rain = 0
KAM1 120614Z 29001KT M01/M10 A3037 RMK A01 T10061101  RH  049%=      5-min Rain = 0
KAM1 120615Z 00000KT M01/M10 A3037 RMK A01 T10061100  RH  049%=      5-min Rain = 0
KAM1 120616Z 00000KT M01/M10 A3037 RMK A01 T10051100  RH  049%=      5-min Rain = 0
KAM1 120617Z 00000KT M00/M10 A3037 RMK A01 T10041100  RH  049%=      5-min Rain = 0
KAM1 120618Z 00000KT M00/M10 A3037 RMK A01 T10031099  RH  048%=      5-min Rain = 0
KAM1 120619Z 00000KT M00/M10 A3037 RMK A01 T10021099  RH  048%=      5-min Rain = 0
KAM1 120620Z 00000KT M00/M10 A3037 RMK A01 T10011099  RH  048%=      5-min Rain = 0
KAM1 120621Z 00000KT M00/M10 A3037 RMK A01 T10011099  RH  048%=      5-min Rain = 0
KAM1 120622Z 00000KT 00/10 A3037 RMK A01 T00000-99  RH  047%=      5-min Rain = 0
KAM1 120623Z 00000KT 00/M10 A3037 RMK A01 T00011099  RH  047%=      5-min Rain = 0
KAM1 120624Z 00000KT 00/M10 A3037 RMK A01 T00011099  RH  047%=      5-min Rain = 0
KAM1 120625Z 00000KT 00/M10 A3037 RMK A01 T00011100  RH  047%=      5-min Rain = 0
KAM1 120626Z 00000KT 00/10 A3037 RMK A01 T00-00-101  RH  047%=      5-min Rain = 0
KAM1 120627Z 00000KT M00/M10 A3037 RMK A01 T10011102  RH  046%=      5-min Rain = 0
KAM1 120628Z 00000KT M00/M10 A3037 RMK A01 T10021103  RH  047%=      5-min Rain = 0
KAM1 120629Z 29000KT M00/M10 A3037 RMK A01 T10031103  RH  047%=      5-min Rain = 0
KAM1 120630Z 29001KT M00/M10 A3037 RMK A01 T10031104  RH  046%=      5-min Rain = 0
KAM1 120631Z 28001KT M00/M10 A3037 RMK A01 T10041104  RH  047%=      5-min Rain = 0
KAM1 120632Z 28002KT M01/M11 A3037 RMK A01 T10051105  RH  047%=      5-min Rain = 0
KAM1 120633Z 28002KT M01/M11 A3037 RMK A01 T10071106  RH  047%=      5-min Rain = 0
KAM1 120634Z 28002KT M01/M11 A3037 RMK A01 T10071106  RH  047%=      5-min Rain = 0
KAM1 120635Z 28002KT M01/M11 A3037 RMK A01 T10081106  RH  047%=      5-min Rain = 0
KAM1 120636Z 28002KT M01/M11 A3037 RMK A01 T10081106  RH  047%=      5-min Rain = 0
KAM1 120637Z 28001KT M01/M11 A3037 RMK A01 T10081105  RH  048%=      5-min Rain = 0
KAM1 120638Z 28001KT M01/M11 A3037 RMK A01 T10081105  RH  048%=      5-min Rain = 0
KAM1 120639Z 28001KT M01/M11 A3037 RMK A01 T10081105  RH  048%=      5-min Rain = 0
KAM1 120640Z 28001KT M01/M11 A3037 RMK A01 T10091105  RH  048%=      5-min Rain = 0
KAM1 120641Z 28001KT M01/M10 A3037 RMK A01 T10081104  RH  048%=      5-min Rain = 0
KAM1 120642Z 28001KT M01/M10 A3037 RMK A01 T10081104  RH  048%=      5-min Rain = 0
KAM1 120643Z 28000KT M01/M10 A3037 RMK A01 T10081104  RH  048%=      5-min Rain = 0
KAM1 120644Z 00000KT M01/M10 A3037 RMK A01 T10081103  RH  048%=      5-min Rain = 0
KAM1 120645Z 00000KT M01/M10 A3037 RMK A01 T10081103  RH  048%=      5-min Rain = 0
KAM1 120646Z 00000KT M01/M10 A3037 RMK A01 T10071102  RH  049%=      5-min Rain = 0
KAM1 120647Z 00000KT M01/M10 A3037 RMK A01 T10061102  RH  048%=      5-min Rain = 0
KAM1 120648Z 00000KT M01/M10 A3037 RMK A01 T10051102  RH  048%=      5-min Rain = 0
KAM1 120649Z 00000KT M00/M10 A3037 RMK A01 T10041101  RH  048%=      5-min Rain = 0
KAM1 120650Z 00000KT M00/M10 A3037 RMK A01 T10041100  RH  048%=      5-min Rain = 0
KAM1 120651Z 00000KT M00/M10 A3037 RMK A01 T10031099  RH  048%=      5-min Rain = 0
KAM1 120652Z 00000KT M00/M10 A3037 RMK A01 T10031099  RH  048%=      5-min Rain = 0
KAM1 120653Z 00000KT M00/M10 A3037 RMK A01 T10031099  RH  048%=      5-min Rain = 0
KAM1 120654Z 00000KT M00/M10 A3037 RMK A01 T10041099  RH  049%=      5-min Rain = 0
KAM1 120655Z 00000KT M00/M10 A3037 RMK A01 T10041098  RH  049%=      5-min Rain = 0
KAM1 120656Z 00000KT M00/M10 A3037 RMK A01 T10041099  RH  049%=      5-min Rain = 0
KAM1 120657Z 00000KT M01/M10 A3037 RMK A01 T10051100  RH  049%=      5-min Rain = 0
KAM1 120658Z 00000KT M01/M10 A3037 RMK A01 T10061101  RH  049%=      5-min Rain = 0
KAM1 120659Z 00000KT M01/M10 A3037 RMK A01 T10071102  RH  049%=      5-min Rain = 0
KAM1 120700Z 00000KT M01/M10 A3037 RMK A01 T10071101  RH  049%=      5-min Rain = 0
KAM1 120701Z 00000KT M01/M10 A3037 RMK A01 T10071099  RH  050%=      5-min Rain = 0
KAM1 120702Z 00000KT M01/M10 A3037 RMK A01 T10061098  RH  050%=      5-min Rain = 0
KAM1 120703Z 00000KT M01/M10 A3037 RMK A01 T10051097  RH  050%=      5-min Rain = 0
KAM1 120704Z 00000KT M01/M10 A3037 RMK A01 T10051098  RH  049%=      5-min Rain = 0
KAM1 120705Z 00000KT M01/M10 A3037 RMK A01 T10051099  RH  049%=      5-min Rain = 0
KAM1 120706Z 08001KT M01/M10 A3037 RMK A01 T10051099  RH  049%=      5-min Rain = 0
KAM1 120707Z 08001KT M01/M10 A3037 RMK A01 T10051099  RH  049%=      5-min Rain = 0
KAM1 120708Z 08001KT M01/M10 A3037 RMK A01 T10051099  RH  049%=      5-min Rain = 0
KAM1 120709Z 08002KT M01/M10 A3037 RMK A01 T10071101  RH  049%=      5-min Rain = 0
KAM1 120710Z 08002KT M01/M10 A3037 RMK A01 T10081100  RH  050%=      5-min Rain = 0
KAM1 120711Z 08002KT M01/M10 A3037 RMK A01 T10081098  RH  050%=      5-min Rain = 0
KAM1 120712Z 08002KT M01/M10 A3037 RMK A01 T10071097  RH  051%=      5-min Rain = 0
KAM1 120713Z 08002KT M01/M10 A3037 RMK A01 T10071097  RH  051%=      5-min Rain = 0
KAM1 120714Z 08002KT M01/M10 A3037 RMK A01 T10071096  RH  051%=      5-min Rain = 0
KAM1 120715Z 08001KT M01/M10 A3037 RMK A01 T10071096  RH  051%=      5-min Rain = 0
KAM1 120716Z 08001KT M01/M10 A3037 RMK A01 T10061095  RH  051%=      5-min Rain = 0
KAM1 120717Z 08001KT M01/M09 A3037 RMK A01 T10051094  RH  051%=      5-min Rain = 0
KAM1 120718Z 08001KT M01/M10 A3037 RMK A01 T10051095  RH  051%=      5-min Rain = 0
KAM1 120719Z 08001KT M01/M10 A3037 RMK A01 T10051095  RH  051%=      5-min Rain = 0
KAM1 120720Z 08001KT M00/M09 A3037 RMK A01 T10031093  RH  051%=      5-min Rain = 0
KAM1 120721Z 08001KT M00/M09 A3037 RMK A01 T10021093  RH  050%=      5-min Rain = 0
KAM1 120722Z 08001KT 00/09 A3037 RMK A01 T00-00-93  RH  050%=      5-min Rain = 0
KAM1 120723Z 08001KT 00/09 A3037 RMK A01 T00000-94  RH  049%=      5-min Rain = 0
KAM1 120724Z 08001KT 00/10 A3037 RMK A01 T00-00-95  RH  049%=      5-min Rain = 0
KAM1 120725Z 08001KT M00/M10 A3037 RMK A01 T10011097  RH  048%=      5-min Rain = 0
KAM1 120726Z 08001KT M00/M10 A3037 RMK A01 T10011096  RH  049%=      5-min Rain = 0
KAM1 120727Z 08001KT M00/M10 A3037 RMK A01 T10011095  RH  049%=      5-min Rain = 0
KAM1 120728Z 08002KT 00/10 A3037 RMK A01 T00-00-96  RH  049%=      5-min Rain = 0
KAM1 120729Z 08002KT 00/10 A3037 RMK A01 T00-00-97  RH  048%=      5-min Rain = 0
KAM1 120730Z 08002KT M00/M10 A3037 RMK A01 T10011097  RH  048%=      5-min Rain = 0
KAM1 120731Z 08002KT M00/M10 A3037 RMK A01 T10021098  RH  048%=      5-min Rain = 0
KAM1 120732Z 08002KT M01/M10 A3037 RMK A01 T10051101  RH  048%=      5-min Rain = 0
KAM1 120733Z 08002KT M01/M10 A3037 RMK A01 T10071101  RH  049%=      5-min Rain = 0
KAM1 120734Z 08003KT M01/M10 A3037 RMK A01 T10081102  RH  049%=      5-min Rain = 0
KAM1 120735Z 08003KT M01/M10 A3037 RMK A01 T10091102  RH  049%=      5-min Rain = 0
KAM1 120736Z 08003KT M01/M10 A3037 RMK A01 T10101102  RH  050%=      5-min Rain = 0
KAM1 120737Z 08003KT M01/M10 A3037 RMK A01 T10111103  RH  050%=      5-min Rain = 0
KAM1 120738Z 08003KT M01/M10 A3037 RMK A01 T10131104  RH  050%=      5-min Rain = 0
KAM1 120739Z 08002KT M01/M10 A3037 RMK A01 T10131103  RH  050%=      5-min Rain = 0
KAM1 120740Z 08002KT M01/M10 A3037 RMK A01 T10131102  RH  051%=      5-min Rain = 0
KAM1 120741Z 08002KT M01/M10 A3037 RMK A01 T10131103  RH  050%=      5-min Rain = 0
KAM1 120742Z 08002KT M01/M11 A3037 RMK A01 T10141105  RH  050%=      5-min Rain = 0
KAM1 120743Z 08002KT M02/M11 A3037 RMK A01 T10151106  RH  050%=      5-min Rain = 0
KAM1 120744Z 08002KT M02/M11 A3037 RMK A01 T10171107  RH  050%=      5-min Rain = 0
KAM1 120745Z 08002KT M02/M11 A3037 RMK A01 T10181107  RH  050%=      5-min Rain = 0
KAM1 120746Z 08001KT M02/M11 A3037 RMK A01 T10191108  RH  051%=      5-min Rain = 0
KAM1 120747Z 08002KT M02/M11 A3037 RMK A01 T10191108  RH  051%=      5-min Rain = 0
KAM1 120748Z 08002KT M02/M11 A3037 RMK A01 T10201107  RH  051%=      5-min Rain = 0
KAM1 120749Z 08002KT M02/M11 A3037 RMK A01 T10201106  RH  052%=      5-min Rain = 0
KAM1 120750Z 08002KT M02/M11 A3037 RMK A01 T10201105  RH  052%=      5-min Rain = 0
KAM1 120751Z 08002KT M02/M11 A3037 RMK A01 T10191105  RH  052%=      5-min Rain = 0
KAM1 120752Z 08002KT M02/M11 A3037 RMK A01 T10191105  RH  052%=      5-min Rain = 0
KAM1 120753Z 08001KT M02/M11 A3037 RMK A01 T10201106  RH  052%=      5-min Rain = 0
KAM1 120754Z 08001KT M02/M11 A3037 RMK A01 T10201106  RH  052%=      5-min Rain = 0
KAM1 120755Z 08001KT M02/M11 A3037 RMK A01 T10211106  RH  052%=      5-min Rain = 0
KAM1 120756Z 08000KT M02/M11 A3037 RMK A01 T10221107  RH  052%=      5-min Rain = 0
KAM1 120757Z 08000KT M02/M11 A3037 RMK A01 T10241108  RH  053%=      5-min Rain = 0
KAM1 120758Z 00000KT M03/M11 A3037 RMK A01 T10261106  RH  054%=      5-min Rain = 0
KAM1 120759Z 00000KT M03/M11 A3037 RMK A01 T10271105  RH  055%=      5-min Rain = 0
KAM1 120800Z 00000KT M03/M10 A3037 RMK A01 T10281104  RH  056%=      5-min Rain = 0
KAM1 120801Z 00000KT M03/M10 A3037 RMK A01 T10281104  RH  056%=      5-min Rain = 0
KAM1 120802Z 00000KT M03/M11 A3037 RMK A01 T10291105  RH  056%=      5-min Rain = 0
KAM1 120803Z 00000KT M03/M10 A3037 RMK A01 T10301104  RH  057%=      5-min Rain = 0
KAM1 120804Z 00000KT M03/M10 A3037 RMK A01 T10291103  RH  057%=      5-min Rain = 0
KAM1 120805Z 00000KT M03/M10 A3037 RMK A01 T10301104  RH  056%=      5-min Rain = 0
KAM1 120806Z 00000KT M03/M11 A3037 RMK A01 T10311105  RH  057%=      5-min Rain = 0
KAM1 120807Z 00000KT M03/M10 A3037 RMK A01 T10321104  RH  057%=      5-min Rain = 0
KAM1 120808Z 00000KT M03/M10 A3037 RMK A01 T10331104  RH  058%=      5-min Rain = 0
KAM1 120809Z 00000KT M03/M10 A3037 RMK A01 T10331104  RH  058%=      5-min Rain = 0
KAM1 120810Z 00000KT M03/M10 A3037 RMK A01 T10341104  RH  058%=      5-min Rain = 0
KAM1 120811Z 00000KT M03/M10 A3037 RMK A01 T10341103  RH  059%=      5-min Rain = 0
KAM1 120812Z 00000KT M03/M10 A3037 RMK A01 T10341101  RH  060%=      5-min Rain = 0
KAM1 120813Z 00000KT M03/M10 A3037 RMK A01 T10321100  RH  059%=      5-min Rain = 0
KAM1 120814Z 00000KT M03/M10 A3037 RMK A01 T10321101  RH  059%=      5-min Rain = 0
KAM1 120815Z 00000KT M03/M10 A3037 RMK A01 T10321103  RH  058%=      5-min Rain = 0
KAM1 120816Z 00000KT M03/M10 A3037 RMK A01 T10331103  RH  058%=      5-min Rain = 0
KAM1 120817Z 00000KT M04/M10 A3037 RMK A01 T10351104  RH  059%=      5-min Rain = 0
KAM1 120818Z 00000KT M04/M10 A3037 RMK A01 T10361104  RH  059%=      5-min Rain = 0
KAM1 120819Z 00000KT M04/M10 A3037 RMK A01 T10371104  RH  060%=      5-min Rain = 0
KAM1 120820Z 00000KT M04/M10 A3037 RMK A01 T10371103  RH  060%=      5-min Rain = 0
KAM1 120821Z 00000KT M04/M10 A3037 RMK A01 T10371103  RH  060%=      5-min Rain = 0
KAM1 120822Z 00000KT M04/M10 A3037 RMK A01 T10371102  RH  061%=      5-min Rain = 0
KAM1 120823Z 00000KT M04/M10 A3037 RMK A01 T10371101  RH  061%=      5-min Rain = 0
KAM1 120824Z 00000KT M04/M10 A3037 RMK A01 T10371100  RH  062%=      5-min Rain = 0
KAM1 120825Z 00000KT M04/M10 A3037 RMK A01 T10361097  RH  063%=      5-min Rain = 0
KAM1 120826Z 00000KT M04/M10 A3037 RMK A01 T10371097  RH  063%=      5-min Rain = 0
KAM1 120827Z 00000KT M04/M10 A3037 RMK A01 T10381096  RH  064%=      5-min Rain = 0
KAM1 120828Z 00000KT M04/M10 A3037 RMK A01 T10391096  RH  065%=      5-min Rain = 0
KAM1 120829Z 00000KT M04/M10 A3037 RMK A01 T10401096  RH  065%=      5-min Rain = 0
KAM1 120830Z 00000KT M04/M10 A3037 RMK A01 T10411096  RH  066%=      5-min Rain = 0
KAM1 120831Z 00000KT M04/M10 A3037 RMK A01 T10411095  RH  066%=      5-min Rain = 0
KAM1 120832Z 00000KT M04/M09 A3037 RMK A01 T10421094  RH  067%=      5-min Rain = 0
KAM1 120833Z 00000KT M04/M09 A3037 RMK A01 T10421093  RH  067%=      5-min Rain = 0
KAM1 120834Z 00000KT M04/M09 A3037 RMK A01 T10421093  RH  068%=      5-min Rain = 0
KAM1 120835Z 15000KT M04/M09 A3037 RMK A01 T10421093  RH  068%=      5-min Rain = 0
KAM1 120836Z 15001KT M04/M09 A3037 RMK A01 T10421092  RH  068%=      5-min Rain = 0
KAM1 120837Z 14001KT M04/M09 A3037 RMK A01 T10411093  RH  067%=      5-min Rain = 0
KAM1 120838Z 14001KT M04/M09 A3037 RMK A01 T10411093  RH  067%=      5-min Rain = 0
KAM1 120839Z 15002KT M04/M10 A3037 RMK A01 T10401095  RH  066%=      5-min Rain = 0
KAM1 120840Z 15002KT M04/M10 A3036 RMK A01 T10401096  RH  065%=      5-min Rain = 0
KAM1 120841Z 15002KT M04/M10 A3036 RMK A01 T10391097  RH  064%=      5-min Rain = 0
KAM1 120842Z 15002KT M04/M10 A3036 RMK A01 T10391098  RH  064%=      5-min Rain = 0
KAM1 120843Z 15002KT M04/M10 A3036 RMK A01 T10391098  RH  063%=      5-min Rain = 0
KAM1 120844Z 14002KT M04/M10 A3036 RMK A01 T10391098  RH  063%=      5-min Rain = 0
KAM1 120845Z 14002KT M04/M10 A3036 RMK A01 T10391098  RH  063%=      5-min Rain = 0
KAM1 120846Z 14002KT M04/M10 A3036 RMK A01 T10381098  RH  063%=      5-min Rain = 0
KAM1 120847Z 14002KT M04/M10 A3036 RMK A01 T10371097  RH  063%=      5-min Rain = 0
KAM1 120848Z 15002KT M04/M10 A3036 RMK A01 T10361097  RH  062%=      5-min Rain = 0
KAM1 120849Z 15002KT M04/M10 A3036 RMK A01 T10361098  RH  062%=      5-min Rain = 0
KAM1 120850Z 15002KT M04/M10 A3036 RMK A01 T10361098  RH  062%=      5-min Rain = 0
KAM1 120851Z 16002KT M04/M10 A3036 RMK A01 T10371098  RH  062%=      5-min Rain = 0
KAM1 120852Z 16001KT M04/M10 A3036 RMK A01 T10371099  RH  062%=      5-min Rain = 0
KAM1 120853Z 16001KT M04/M10 A3036 RMK A01 T10381099  RH  063%=      5-min Rain = 0
KAM1 120854Z 16001KT M04/M10 A3036 RMK A01 T10391100  RH  063%=      5-min Rain = 0
KAM1 120855Z 16001KT M04/M10 A3036 RMK A01 T10391099  RH  063%=      5-min Rain = 0
KAM1 120856Z 15001KT M04/M10 A3036 RMK A01 T10391099  RH  063%=      5-min Rain = 0
KAM1 120857Z 15001KT M04/M10 A3036 RMK A01 T10381099  RH  063%=      5-min Rain = 0
KAM1 120858Z 15001KT M04/M10 A3036 RMK A01 T10381099  RH  062%=      5-min Rain = 0
KAM1 120859Z 15001KT M04/M10 A3036 RMK A01 T10381100  RH  062%=      5-min Rain = 0
KAM1 120900Z 16001KT M04/M10 A3036 RMK A01 T10391100  RH  062%=      5-min Rain = 0
KAM1 120901Z 17001KT M04/M10 A3036 RMK A01 T10401101  RH  062%=      5-min Rain = 0
KAM1 120902Z 17001KT M04/M10 A3036 RMK A01 T10411102  RH  063%=      5-min Rain = 0
KAM1 120903Z 17001KT M04/M10 A3036 RMK A01 T10411101  RH  063%=      5-min Rain = 0
KAM1 120904Z 17001KT M04/M10 A3036 RMK A01 T10411099  RH  064%=      5-min Rain = 0
KAM1 120905Z 17001KT M04/M10 A3036 RMK A01 T10391098  RH  064%=      5-min Rain = 0
KAM1 120906Z 17001KT M04/M10 A3036 RMK A01 T10381097  RH  063%=      5-min Rain = 0
KAM1 120907Z 17001KT M04/M10 A3036 RMK A01 T10371097  RH  063%=      5-min Rain = 0
KAM1 120908Z 17001KT M04/M10 A3036 RMK A01 T10351096  RH  063%=      5-min Rain = 0
KAM1 120909Z 17001KT M04/M10 A3036 RMK A01 T10351098  RH  062%=      5-min Rain = 0
KAM1 120910Z 16002KT M04/M10 A3036 RMK A01 T10351097  RH  062%=      5-min Rain = 0
KAM1 120911Z 16002KT M04/M10 A3036 RMK A01 T10351097  RH  062%=      5-min Rain = 0
KAM1 120912Z 16002KT M03/M10 A3036 RMK A01 T10341097  RH  062%=      5-min Rain = 0
KAM1 120913Z 16002KT M03/M10 A3036 RMK A01 T10331096  RH  062%=      5-min Rain = 0
KAM1 120914Z 16001KT M03/M10 A3036 RMK A01 T10321096  RH  061%=      5-min Rain = 0
KAM1 120915Z 16001KT M03/M10 A3036 RMK A01 T10311095  RH  061%=      5-min Rain = 0
KAM1 120916Z 16001KT M03/M09 A3036 RMK A01 T10291094  RH  061%=      5-min Rain = 0
KAM1 120917Z 16001KT M03/M09 A3036 RMK A01 T10281094  RH  060%=      5-min Rain = 0
KAM1 120918Z 16001KT M03/M10 A3036 RMK A01 T10281096  RH  060%=      5-min Rain = 0
KAM1 120919Z 16001KT M03/M10 A3036 RMK A01 T10291096  RH  060%=      5-min Rain = 0
KAM1 120920Z 16001KT M03/M10 A3036 RMK A01 T10291095  RH  060%=      5-min Rain = 0
KAM1 120921Z 16001KT M03/M10 A3036 RMK A01 T10301095  RH  061%=      5-min Rain = 0
KAM1 120922Z 15001KT M03/M09 A3036 RMK A01 T10301094  RH  061%=      5-min Rain = 0
KAM1 120923Z 15002KT M03/M10 A3036 RMK A01 T10301095  RH  061%=      5-min Rain = 0
KAM1 120924Z 14002KT M03/M10 A3036 RMK A01 T10311095  RH  061%=      5-min Rain = 0
KAM1 120925Z 14002KT M03/M10 A3036 RMK A01 T10311095  RH  061%=      5-min Rain = 0
KAM1 120926Z 14002KT M03/M10 A3036 RMK A01 T10301095  RH  061%=      5-min Rain = 0
KAM1 120927Z 14001KT M03/M10 A3036 RMK A01 T10311096  RH  061%=      5-min Rain = 0
KAM1 120928Z 15001KT M03/M10 A3036 RMK A01 T10321096  RH  061%=      5-min Rain = 0
KAM1 120929Z 17001KT M03/M10 A3036 RMK A01 T10331096  RH  062%=      5-min Rain = 0
KAM1 120930Z 17001KT M04/M10 A3036 RMK A01 T10351097  RH  062%=      5-min Rain = 0
KAM1 120931Z 17001KT M04/M10 A3036 RMK A01 T10371098  RH  063%=      5-min Rain = 0
KAM1 120932Z 17001KT M04/M10 A3036 RMK A01 T10381097  RH  063%=      5-min Rain = 0
KAM1 120933Z 17001KT M04/M10 A3036 RMK A01 T10391097  RH  064%=      5-min Rain = 0
KAM1 120934Z 17001KT M04/M10 A3036 RMK A01 T10401098  RH  064%=      5-min Rain = 0
KAM1 120935Z 19001KT M04/M10 A3036 RMK A01 T10401096  RH  065%=      5-min Rain = 0
KAM1 120936Z 18001KT M04/M10 A3036 RMK A01 T10401095  RH  066%=      5-min Rain = 0
KAM1 120937Z 19001KT M04/M09 A3036 RMK A01 T10391093  RH  066%=      5-min Rain = 0
KAM1 120938Z 19001KT M04/M09 A3036 RMK A01 T10381092  RH  066%=      5-min Rain = 0
KAM1 120939Z 19001KT M04/M09 A3036 RMK A01 T10371091  RH  066%=      5-min Rain = 0
KAM1 120940Z 21001KT M04/M09 A3036 RMK A01 T10361089  RH  067%=      5-min Rain = 0
KAM1 120941Z 23003KT M04/M09 A3036 RMK A01 T10361089  RH  066%=      5-min Rain = 0
KAM1 120942Z 24005KT M04/M09 A3036 RMK A01 T10381092  RH  066%=      5-min Rain = 0
KAM1 120943Z 23004KT M04/M10 A3036 RMK A01 T10421096  RH  066%=      5-min Rain = 0
KAM1 120944Z 23004KT M05/M10 A3036 RMK A01 T10451100  RH  066%=      5-min Rain = 0
KAM1 120945Z 23004KT M05/M10 A3036 RMK A01 T10481102  RH  066%=      5-min Rain = 0
KAM1 120946Z 23004KT M05/M10 A3036 RMK A01 T10491104  RH  066%=      5-min Rain = 0
KAM1 120947Z 24005KT M05/M11 A3036 RMK A01 T10501105  RH  066%=      5-min Rain = 0
KAM1 120948Z 24005KT M05/M11 A3036 RMK A01 T10511106  RH  065%=      5-min Rain = 0
KAM1 120949Z 24005KT M05/M11 A3036 RMK A01 T10521106  RH  066%=      5-min Rain = 0
KAM1 120950Z 25005KT M05/M11 A3036 RMK A01 T10521107  RH  066%=      5-min Rain = 0
KAM1 120951Z 26005KT M05/M11 A3036 RMK A01 T10521106  RH  066%=      5-min Rain = 0
KAM1 120952Z 26005KT M05/M11 A3036 RMK A01 T10511105  RH  066%=      5-min Rain = 0
KAM1 120953Z 26005KT M05/M11 A3036 RMK A01 T10501105  RH  066%=      5-min Rain = 0
KAM1 120954Z 26005KT M05/M11 A3036 RMK A01 T10501105  RH  065%=      5-min Rain = 0
KAM1 120955Z 26005KT M05/M11 A3036 RMK A01 T10501105  RH  065%=      5-min Rain = 0
KAM1 120956Z 26004KT M05/M11 A3036 RMK A01 T10501106  RH  065%=      5-min Rain = 0
KAM1 120957Z 27004KT M05/M11 A3036 RMK A01 T10501105  RH  065%=      5-min Rain = 0
KAM1 120958Z 27004KT M05/M11 A3036 RMK A01 T10501106  RH  064%=      5-min Rain = 0
KAM1 120959Z 27003KT M05/M11 A3036 RMK A01 T10501106  RH  065%=      5-min Rain = 0
KAM1 121000Z 27003KT M05/M11 A3036 RMK A01 T10501105  RH  065%=      5-min Rain = 0
KAM1 121001Z 27003KT M05/M11 A3036 RMK A01 T10501105  RH  065%=      5-min Rain = 0
KAM1 121002Z 28003KT M05/M11 A3036 RMK A01 T10501105  RH  066%=      5-min Rain = 0
KAM1 121003Z 28003KT M05/M10 A3036 RMK A01 T10501103  RH  067%=      5-min Rain = 0
KAM1 121004Z 27002KT M05/M10 A3036 RMK A01 T10501101  RH  067%=      5-min Rain = 0
KAM1 121005Z 27002KT M05/M10 A3036 RMK A01 T10491099  RH  068%=      5-min Rain = 0
KAM1 121006Z 27002KT M05/M10 A3036 RMK A01 T10491099  RH  068%=      5-min Rain = 0
KAM1 121007Z 27003KT M05/M10 A3036 RMK A01 T10491098  RH  068%=      5-min Rain = 0
KAM1 121008Z 26003KT M05/M10 A3036 RMK A01 T10471096  RH  068%=      5-min Rain = 0
KAM1 121009Z 26003KT M05/M10 A3036 RMK A01 T10461096  RH  068%=      5-min Rain = 0
KAM1 121010Z 26003KT M05/M10 A3036 RMK A01 T10451096  RH  068%=      5-min Rain = 0
KAM1 121011Z 26003KT M05/M10 A3036 RMK A01 T10451097  RH  067%=      5-min Rain = 0
KAM1 121012Z 26003KT M05/M10 A3036 RMK A01 T10461097  RH  067%=      5-min Rain = 0
KAM1 121013Z 26003KT M05/M10 A3036 RMK A01 T10461097  RH  067%=      5-min Rain = 0
KAM1 121014Z 26003KT M05/M10 A3036 RMK A01 T10461097  RH  067%=      5-min Rain = 0
KAM1 121015Z 26003KT M05/M10 A3036 RMK A01 T10461097  RH  067%=      5-min Rain = 0
KAM1 121016Z 26003KT M05/M10 A3036 RMK A01 T10461097  RH  068%=      5-min Rain = 0
KAM1 121017Z 26003KT M05/M10 A3036 RMK A01 T10451096  RH  068%=      5-min Rain = 0
KAM1 121018Z 25003KT M05/M10 A3036 RMK A01 T10451096  RH  068%=      5-min Rain = 0
KAM1 121019Z 25003KT M04/M10 A3036 RMK A01 T10441096  RH  067%=      5-min Rain = 0
KAM1 121020Z 25003KT M04/M10 A3036 RMK A01 T10441095  RH  067%=      5-min Rain = 0
KAM1 121021Z 25003KT M04/M10 A3036 RMK A01 T10431095  RH  067%=      5-min Rain = 0
KAM1 121022Z 25003KT M04/M10 A3036 RMK A01 T10421096  RH  066%=      5-min Rain = 0
KAM1 121023Z 25003KT M04/M10 A3036 RMK A01 T10421096  RH  066%=      5-min Rain = 0
KAM1 121024Z 25003KT M04/M10 A3036 RMK A01 T10411096  RH  066%=      5-min Rain = 0
KAM1 121025Z 25003KT M04/M10 A3036 RMK A01 T10411097  RH  065%=      5-min Rain = 0
KAM1 121026Z 25003KT M04/M10 A3036 RMK A01 T10411097  RH  065%=      5-min Rain = 0
KAM1 121027Z 25003KT M04/M10 A3036 RMK A01 T10421097  RH  065%=      5-min Rain = 0
KAM1 121028Z 25003KT M04/M10 A3036 RMK A01 T10421097  RH  065%=      5-min Rain = 0
KAM1 121029Z 25003KT M04/M10 A3036 RMK A01 T10421097  RH  065%=      5-min Rain = 0
KAM1 121030Z 25003KT M04/M10 A3036 RMK A01 T10421098  RH  065%=      5-min Rain = 0
KAM1 121031Z 25003KT M04/M10 A3036 RMK A01 T10421098  RH  065%=      5-min Rain = 0
KAM1 121032Z 25003KT M04/M10 A3036 RMK A01 T10421098  RH  065%=      5-min Rain = 0
KAM1 121033Z 25003KT M04/M10 A3036 RMK A01 T10411097  RH  065%=      5-min Rain = 0
KAM1 121034Z 25004KT M04/M10 A3036 RMK A01 T10401097  RH  064%=      5-min Rain = 0
KAM1 121035Z 25004KT M04/M10 A3036 RMK A01 T10401097  RH  064%=      5-min Rain = 0
KAM1 121036Z 25004KT M04/M10 A3036 RMK A01 T10401098  RH  064%=      5-min Rain = 0
KAM1 121037Z 25004KT M04/M10 A3036 RMK A01 T10401099  RH  063%=      5-min Rain = 0
KAM1 121038Z 25004KT M04/M10 A3036 RMK A01 T10411101  RH  063%=      5-min Rain = 0
KAM1 121039Z 25004KT M04/M10 A3036 RMK A01 T10421102  RH  063%=      5-min Rain = 0
KAM1 121040Z 25004KT M04/M10 A3036 RMK A01 T10421102  RH  063%=      5-min Rain = 0
KAM1 121041Z 25004KT M04/M10 A3036 RMK A01 T10431103  RH  063%=      5-min Rain = 0
KAM1 121042Z 25004KT M04/M10 A3036 RMK A01 T10431102  RH  063%=      5-min Rain = 0
KAM1 121043Z 25004KT M04/M10 A3036 RMK A01 T10421101  RH  063%=      5-min Rain = 0
KAM1 121044Z 26005KT M04/M10 A3036 RMK A01 T10411102  RH  062%=      5-min Rain = 0
KAM1 121045Z 25005KT M04/M10 A3036 RMK A01 T10421104  RH  062%=      5-min Rain = 0
KAM1 121046Z 25005KT M04/M11 A3036 RMK A01 T10431106  RH  062%=      5-min Rain = 0
KAM1 121047Z 25005KT M05/M11 A3036 RMK A01 T10451107  RH  062%=      5-min Rain = 0
KAM1 121048Z 25005KT M05/M11 A3036 RMK A01 T10471108  RH  062%=      5-min Rain = 0
KAM1 121049Z 25005KT M05/M11 A3036 RMK A01 T10491109  RH  063%=      5-min Rain = 0
KAM1 121050Z 26005KT M05/M11 A3036 RMK A01 T10501110  RH  063%=      5-min Rain = 0
KAM1 121051Z 26005KT M05/M11 A3036 RMK A01 T10511109  RH  064%=      5-min Rain = 0
KAM1 121052Z 26005KT M05/M11 A3036 RMK A01 T10511109  RH  064%=      5-min Rain = 0
KAM1 121053Z 26004KT M05/M11 A3036 RMK A01 T10511108  RH  064%=      5-min Rain = 0
KAM1 121054Z 26004KT M05/M11 A3036 RMK A01 T10511108  RH  064%=      5-min Rain = 0
KAM1 121055Z 26004KT M05/M11 A3036 RMK A01 T10501107  RH  064%=      5-min Rain = 0
KAM1 121056Z 26004KT M05/M11 A3036 RMK A01 T10511108  RH  064%=      5-min Rain = 0
KAM1 121057Z 25004KT M05/M11 A3036 RMK A01 T10521108  RH  064%=      5-min Rain = 0
KAM1 121058Z 25004KT M05/M11 A3036 RMK A01 T10511108  RH  065%=      5-min Rain = 0
KAM1 121059Z 26004KT M05/M11 A3036 RMK A01 T10521108  RH  065%=      5-min Rain = 0
KAM1 121100Z 26004KT M05/M11 A3036 RMK A01 T10521108  RH  065%=      5-min Rain = 0
KAM1 121101Z 26004KT M05/M11 A3036 RMK A01 T10511107  RH  065%=      5-min Rain = 0
KAM1 121102Z 25004KT M05/M11 A3036 RMK A01 T10501106  RH  065%=      5-min Rain = 0
KAM1 121103Z 25004KT M05/M11 A3036 RMK A01 T10491106  RH  064%=      5-min Rain = 0
KAM1 121104Z 25004KT M05/M11 A3036 RMK A01 T10481106  RH  064%=      5-min Rain = 0
KAM1 121105Z 25004KT M05/M11 A3036 RMK A01 T10481106  RH  064%=      5-min Rain = 0
KAM1 121106Z 25004KT M05/M11 A3036 RMK A01 T10471106  RH  064%=      5-min Rain = 0
KAM1 121107Z 25004KT M05/M11 A3036 RMK A01 T10481106  RH  063%=      5-min Rain = 0
KAM1 121108Z 25004KT M05/M11 A3036 RMK A01 T10481106  RH  064%=      5-min Rain = 0
KAM1 121109Z 24004KT M05/M11 A3036 RMK A01 T10481106  RH  064%=      5-min Rain = 0
KAM1 121110Z 24004KT M05/M11 A3036 RMK A01 T10481106  RH  064%=      5-min Rain = 0
KAM1 121111Z 24004KT M05/M11 A3036 RMK A01 T10481107  RH  063%=      5-min Rain = 0
KAM1 121112Z 24004KT M05/M11 A3036 RMK A01 T10491108  RH  063%=      5-min Rain = 0
KAM1 121113Z 24004KT M05/M11 A3036 RMK A01 T10501108  RH  064%=      5-min Rain = 0
KAM1 121114Z 24004KT M05/M11 A3036 RMK A01 T10511108  RH  064%=      5-min Rain = 0
KAM1 121115Z 24004KT M05/M11 A3036 RMK A01 T10511108  RH  064%=      5-min Rain = 0
KAM1 121116Z 24004KT M05/M11 A3036 RMK A01 T10511108  RH  064%=      5-min Rain = 0
KAM1 121117Z 23004KT M05/M11 A3036 RMK A01 T10511108  RH  064%=      5-min Rain = 0
KAM1 121118Z 23004KT M05/M11 A3036 RMK A01 T10511109  RH  064%=      5-min Rain = 0
KAM1 121119Z 23004KT M05/M11 A3036 RMK A01 T10511109  RH  064%=      5-min Rain = 0
KAM1 121120Z 23004KT M05/M11 A3036 RMK A01 T10501109  RH  064%=      5-min Rain = 0
KAM1 121121Z 23004KT M05/M11 A3036 RMK A01 T10511110  RH  064%=      5-min Rain = 0
KAM1 121122Z 23004KT M05/M11 A3036 RMK A01 T10521110  RH  064%=      5-min Rain = 0
KAM1 121123Z 23004KT M05/M11 A3036 RMK A01 T10521110  RH  064%=      5-min Rain = 0
KAM1 121124Z 23004KT M05/M11 A3036 RMK A01 T10521110  RH  064%=      5-min Rain = 0
KAM1 121125Z 23004KT M05/M11 A3036 RMK A01 T10511108  RH  064%=      5-min Rain = 0
KAM1 121126Z 23004KT M05/M11 A3036 RMK A01 T10491106  RH  064%=      5-min Rain = 0
KAM1 121127Z 22004KT M05/M11 A3036 RMK A01 T10471107  RH  063%=      5-min Rain = 0
KAM1 121128Z 22005KT M05/M11 A3036 RMK A01 T10471107  RH  063%=      5-min Rain = 0
KAM1 121129Z 22005KT M05/M11 A3036 RMK A01 T10471108  RH  063%=      5-min Rain = 0
KAM1 121130Z 22005KT M05/M11 A3036 RMK A01 T10481108  RH  063%=      5-min Rain = 0
KAM1 121131Z 22005KT M05/M11 A3036 RMK A01 T10481108  RH  063%=      5-min Rain = 0
KAM1 121132Z 22005KT M05/M11 A3036 RMK A01 T10481108  RH  063%=      5-min Rain = 0
KAM1 121133Z 23004KT M05/M11 A3036 RMK A01 T10481108  RH  063%=      5-min Rain = 0
KAM1 121134Z 23004KT M05/M11 A3036 RMK A01 T10481108  RH  063%=      5-min Rain = 0
KAM1 121135Z 23004KT M05/M11 A3036 RMK A01 T10481108  RH  063%=      5-min Rain = 0
KAM1 121136Z 23004KT M05/M11 A3036 RMK A01 T10471107  RH  063%=      5-min Rain = 0
KAM1 121137Z 23004KT M05/M11 A3036 RMK A01 T10461107  RH  062%=      5-min Rain = 0
KAM1 121138Z 23005KT M05/M11 A3036 RMK A01 T10461108  RH  062%=      5-min Rain = 0
KAM1 121139Z 23005KT M05/M11 A3036 RMK A01 T10461108  RH  062%=      5-min Rain = 0
KAM1 121140Z 23005KT M05/M11 A3036 RMK A01 T10461108  RH  062%=      5-min Rain = 0
KAM1 121141Z 23005KT M05/M11 A3036 RMK A01 T10461108  RH  062%=      5-min Rain = 0
KAM1 121142Z 23005KT M05/M11 A3036 RMK A01 T10471109  RH  062%=      5-min Rain = 0
KAM1 121143Z 24005KT M05/M11 A3036 RMK A01 T10471109  RH  062%=      5-min Rain = 0
KAM1 121144Z 24005KT M05/M11 A3036 RMK A01 T10471109  RH  062%=      5-min Rain = 0
KAM1 121145Z 24005KT M05/M11 A3036 RMK A01 T10481110  RH  062%=      5-min Rain = 0
KAM1 121146Z 24005KT M05/M11 A3036 RMK A01 T10481109  RH  062%=      5-min Rain = 0
KAM1 121147Z 24005KT M05/M11 A3036 RMK A01 T10481110  RH  062%=      5-min Rain = 0
KAM1 121148Z 23005KT M05/M11 A3036 RMK A01 T10481110  RH  062%=      5-min Rain = 0
KAM1 121149Z 23005KT M05/M11 A3036 RMK A01 T10481109  RH  062%=      5-min Rain = 0
KAM1 121150Z 23005KT M05/M11 A3036 RMK A01 T10481110  RH  062%=      5-min Rain = 0
KAM1 121151Z 23005KT M05/M11 A3036 RMK A01 T10491111  RH  062%=      5-min Rain = 0
KAM1 121152Z 23005KT M05/M11 A3036 RMK A01 T10491111  RH  062%=      5-min Rain = 0
KAM1 121153Z 24005KT M05/M11 A3036 RMK A01 T10501111  RH  062%=      5-min Rain = 0
KAM1 121154Z 24005KT M05/M11 A3036 RMK A01 T10511112  RH  062%=      5-min Rain = 0
KAM1 121155Z 24005KT M05/M11 A3036 RMK A01 T10511112  RH  062%=      5-min Rain = 0
KAM1 121156Z 24005KT M05/M11 A3036 RMK A01 T10521113  RH  062%=      5-min Rain = 0
KAM1 121157Z 25005KT M05/M11 A3036 RMK A01 T10541114  RH  063%=      5-min Rain = 0
KAM1 121158Z 25005KT M05/M11 A3036 RMK A01 T10541113  RH  063%=      5-min Rain = 0
KAM1 121159Z 25005KT M06/M11 A3036 RMK A01 T10551114  RH  063%=      5-min Rain = 0
KAM1 121200Z 25005KT M06/M11 A3036 RMK A01 T10561114  RH  063%=      5-min Rain = 0
KAM1 121201Z 25005KT M06/M11 A3036 RMK A01 T10561114  RH  064%=      5-min Rain = 0
KAM1 121202Z 25005KT M06/M11 A3036 RMK A01 T10561114  RH  064%=      5-min Rain = 0
KAM1 121203Z 25005KT M06/M11 A3036 RMK A01 T10571114  RH  064%=      5-min Rain = 0
KAM1 121204Z 26005KT M06/M11 A3036 RMK A01 T10581113  RH  065%=      5-min Rain = 0
KAM1 121205Z 26005KT M06/M11 A3036 RMK A01 T10581111  RH  066%=      5-min Rain = 0
KAM1 121206Z 26005KT M06/M11 A3036 RMK A01 T10581110  RH  067%=      5-min Rain = 0
KAM1 121207Z 26005KT M06/M11 A3036 RMK A01 T10591109  RH  068%=      5-min Rain = 0
KAM1 121208Z 26006KT M06/M11 A3036 RMK A01 T10601110  RH  068%=      5-min Rain = 0
KAM1 121209Z 26006KT M06/M11 A3036 RMK A01 T10611111  RH  068%=      5-min Rain = 0
KAM1 121210Z 26006KT M06/M11 A3036 RMK A01 T10631112  RH  068%=      5-min Rain = 0
KAM1 121211Z 26006KT M06/M11 A3036 RMK A01 T10641113  RH  068%=      5-min Rain = 0
KAM1 121212Z 26006KT M07/M11 A3036 RMK A01 T10661113  RH  069%=      5-min Rain = 0
KAM1 121213Z 26006KT M07/M11 A3036 RMK A01 T10671114  RH  069%=      5-min Rain = 0
KAM1 121214Z 26005KT M07/M11 A3037 RMK A01 T10671114  RH  070%=      5-min Rain = 0
KAM1 121215Z 26006KT M07/M11 A3037 RMK A01 T10681114  RH  070%=      5-min Rain = 0
KAM1 121216Z 26006KT M07/M11 A3037 RMK A01 T10691113  RH  070%=      5-min Rain = 0
KAM1 121217Z 26005KT M07/M11 A3037 RMK A01 T10681112  RH  071%=      5-min Rain = 0
KAM1 121218Z 26005KT M07/M11 A3037 RMK A01 T10671111  RH  071%=      5-min Rain = 0
KAM1 121219Z 26005KT M07/M11 A3037 RMK A01 T10661111  RH  071%=      5-min Rain = 0
KAM1 121220Z 26005KT M07/M11 A3037 RMK A01 T10661111  RH  070%=      5-min Rain = 0
KAM1 121221Z 26005KT M06/M11 A3037 RMK A01 T10641111  RH  070%=      5-min Rain = 0
KAM1 121222Z 26005KT M06/M11 A3037 RMK A01 T10641111  RH  069%=      5-min Rain = 0
KAM1 121223Z 26005KT M06/M11 A3037 RMK A01 T10641112  RH  069%=      5-min Rain = 0
KAM1 121224Z 26005KT M07/M11 A3037 RMK A01 T10651113  RH  069%=      5-min Rain = 0
KAM1 121225Z 26005KT M07/M11 A3037 RMK A01 T10651113  RH  069%=      5-min Rain = 0
KAM1 121226Z 26005KT M07/M11 A3037 RMK A01 T10651113  RH  069%=      5-min Rain = 0
KAM1 121227Z 26005KT M07/M11 A3037 RMK A01 T10651113  RH  069%=      5-min Rain = 0
KAM1 121228Z 26005KT M07/M11 A3037 RMK A01 T10651113  RH  069%=      5-min Rain = 0
KAM1 121229Z 26004KT M07/M11 A3037 RMK A01 T10651113  RH  069%=      5-min Rain = 0
KAM1 121230Z 26004KT M06/M11 A3037 RMK A01 T10641113  RH  069%=      5-min Rain = 0
KAM1 121231Z 26004KT M06/M11 A3037 RMK A01 T10641113  RH  068%=      5-min Rain = 0
KAM1 121232Z 27003KT M06/M11 A3037 RMK A01 T10631112  RH  068%=      5-min Rain = 0
KAM1 121233Z 27003KT M06/M11 A3037 RMK A01 T10621112  RH  068%=      5-min Rain = 0
KAM1 121234Z 27003KT M06/M11 A3037 RMK A01 T10601111  RH  067%=      5-min Rain = 0
KAM1 121235Z 27003KT M06/M11 A3037 RMK A01 T10581111  RH  066%=      5-min Rain = 0
KAM1 121236Z 27003KT M06/M11 A3037 RMK A01 T10571111  RH  066%=      5-min Rain = 0
KAM1 121237Z 27003KT M06/M11 A3037 RMK A01 T10571112  RH  065%=      5-min Rain = 0
KAM1 121238Z 27004KT M06/M11 A3037 RMK A01 T10571112  RH  065%=      5-min Rain = 0
KAM1 121239Z 27004KT M06/M11 A3037 RMK A01 T10571113  RH  065%=      5-min Rain = 0
KAM1 121240Z 27004KT M06/M11 A3037 RMK A01 T10571113  RH  065%=      5-min Rain = 0
KAM1 121241Z 27004KT M06/M11 A3037 RMK A01 T10561113  RH  065%=      5-min Rain = 0
KAM1 121242Z 27004KT M06/M11 A3037 RMK A01 T10561113  RH  064%=      5-min Rain = 0
KAM1 121243Z 27004KT M06/M11 A3037 RMK A01 T10561113  RH  064%=      5-min Rain = 0
KAM1 121244Z 27004KT M05/M11 A3037 RMK A01 T10541112  RH  064%=      5-min Rain = 0
KAM1 121245Z 27004KT M05/M11 A3037 RMK A01 T10531112  RH  063%=      5-min Rain = 0
KAM1 121246Z 27004KT M05/M11 A3037 RMK A01 T10511110  RH  063%=      5-min Rain = 0
KAM1 121247Z 27004KT M05/M11 A3037 RMK A01 T10491109  RH  063%=      5-min Rain = 0
KAM1 121248Z 27004KT M05/M11 A3037 RMK A01 T10491111  RH  062%=      5-min Rain = 0
KAM1 121249Z 27005KT M05/M11 A3037 RMK A01 T10501112  RH  062%=      5-min Rain = 0
KAM1 121250Z 27005KT M05/M11 A3037 RMK A01 T10511113  RH  062%=      5-min Rain = 0
KAM1 121251Z 27005KT M05/M11 A3037 RMK A01 T10521113  RH  062%=      5-min Rain = 0
KAM1 121252Z 27005KT M05/M11 A3037 RMK A01 T10531114  RH  062%=      5-min Rain = 0
KAM1 121253Z 26005KT M05/M11 A3037 RMK A01 T10531114  RH  062%=      5-min Rain = 0
KAM1 121254Z 26005KT M05/M11 A3037 RMK A01 T10541114  RH  063%=      5-min Rain = 0
KAM1 121255Z 27005KT M06/M11 A3037 RMK A01 T10551114  RH  063%=      5-min Rain = 0
KAM1 121256Z 26005KT M06/M11 A3037 RMK A01 T10551114  RH  063%=      5-min Rain = 0
KAM1 121257Z 26005KT M06/M11 A3037 RMK A01 T10551114  RH  063%=      5-min Rain = 0
KAM1 121258Z 26005KT M06/M11 A3037 RMK A01 T10551113  RH  064%=      5-min Rain = 0
KAM1 121259Z 26005KT M06/M11 A3037 RMK A01 T10551112  RH  064%=      5-min Rain = 0
KAM1 121300Z 26005KT M05/M11 A3037 RMK A01 T10541112  RH  064%=      5-min Rain = 0
KAM1 121301Z 26005KT M05/M11 A3037 RMK A01 T10541113  RH  064%=      5-min Rain = 0
KAM1 121302Z 26005KT M05/M11 A3037 RMK A01 T10541113  RH  064%=      5-min Rain = 0
KAM1 121303Z 27005KT M05/M11 A3037 RMK A01 T10541113  RH  063%=      5-min Rain = 0
KAM1 121304Z 27005KT M05/M11 A3037 RMK A01 T10541113  RH  063%=      5-min Rain = 0
KAM1 121305Z 27005KT M05/M11 A3037 RMK A01 T10541113  RH  063%=      5-min Rain = 0
KAM1 121306Z 27005KT M06/M11 A3037 RMK A01 T10551114  RH  063%=      5-min Rain = 0
KAM1 121307Z 27005KT M06/M12 A3037 RMK A01 T10561115  RH  063%=      5-min Rain = 0
KAM1 121308Z 27005KT M06/M12 A3037 RMK A01 T10561115  RH  063%=      5-min Rain = 0
KAM1 121309Z 27005KT M06/M12 A3037 RMK A01 T10571115  RH  063%=      5-min Rain = 0
KAM1 121310Z 27005KT M06/M12 A3037 RMK A01 T10571115  RH  063%=      5-min Rain = 0
KAM1 121311Z 27005KT M06/M12 A3037 RMK A01 T10561115  RH  063%=      5-min Rain = 0
KAM1 121312Z 27005KT M06/M12 A3037 RMK A01 T10561115  RH  063%=      5-min Rain = 0
KAM1 121313Z 27005KT M06/M11 A3037 RMK A01 T10551114  RH  063%=      5-min Rain = 0
KAM1 121314Z 27005KT M06/M11 A3037 RMK A01 T10551114  RH  063%=      5-min Rain = 0
KAM1 121315Z 27005KT M06/M11 A3037 RMK A01 T10551114  RH  063%=      5-min Rain = 0
KAM1 121316Z 27005KT M05/M11 A3037 RMK A01 T10541114  RH  063%=      5-min Rain = 0
KAM1 121317Z 27005KT M05/M11 A3037 RMK A01 T10531114  RH  062%=      5-min Rain = 0
KAM1 121318Z 27005KT M05/M11 A3037 RMK A01 T10531114  RH  062%=      5-min Rain = 0
KAM1 121319Z 27004KT M05/M12 A3037 RMK A01 T10541115  RH  062%=      5-min Rain = 0
KAM1 121320Z 27004KT M05/M12 A3037 RMK A01 T10541115  RH  062%=      5-min Rain = 0
KAM1 121321Z 27004KT M05/M12 A3037 RMK A01 T10541115  RH  062%=      5-min Rain = 0
KAM1 121322Z 27004KT M05/M12 A3037 RMK A01 T10541115  RH  062%=      5-min Rain = 0
KAM1 121323Z 27004KT M05/M12 A3037 RMK A01 T10531115  RH  062%=      5-min Rain = 0
KAM1 121324Z 27004KT M05/M11 A3037 RMK A01 T10521114  RH  062%=      5-min Rain = 0
KAM1 121325Z 27004KT M05/M11 A3037 RMK A01 T10511114  RH  061%=      5-min Rain = 0
KAM1 121326Z 27004KT M05/M11 A3037 RMK A01 T10501113  RH  061%=      5-min Rain = 0
KAM1 121327Z 27004KT M05/M11 A3037 RMK A01 T10481112  RH  060%=      5-min Rain = 0
KAM1 121328Z 27004KT M05/M11 A3037 RMK A01 T10461112  RH  060%=      5-min Rain = 0
KAM1 121329Z 27004KT M05/M11 A3037 RMK A01 T10461112  RH  060%=      5-min Rain = 0
KAM1 121330Z 27004KT M05/M11 A3037 RMK A01 T10451113  RH  059%=      5-min Rain = 0
KAM1 121331Z 27004KT M05/M11 A3037 RMK A01 T10451113  RH  059%=      5-min Rain = 0
KAM1 121332Z 27003KT M04/M11 A3037 RMK A01 T10441112  RH  059%=      5-min Rain = 0
KAM1 121333Z 27003KT M04/M11 A3037 RMK A01 T10441112  RH  059%=      5-min Rain = 0
KAM1 121334Z 27003KT M04/M11 A3037 RMK A01 T10431112  RH  059%=      5-min Rain = 0
KAM1 121335Z 27003KT M04/M11 A3037 RMK A01 T10431112  RH  059%=      5-min Rain = 0
KAM1 121336Z 27003KT M04/M11 A3037 RMK A01 T10421112  RH  058%=      5-min Rain = 0
KAM1 121337Z 27004KT M04/M11 A3037 RMK A01 T10421112  RH  058%=      5-min Rain = 0
KAM1 121338Z 27004KT M04/M11 A3037 RMK A01 T10421111  RH  058%=      5-min Rain = 0
KAM1 121339Z 27004KT M04/M11 A3037 RMK A01 T10421111  RH  059%=      5-min Rain = 0
KAM1 121340Z 26004KT M04/M11 A3037 RMK A01 T10421110  RH  059%=      5-min Rain = 0
KAM1 121341Z 26004KT M04/M11 A3037 RMK A01 T10421109  RH  060%=      5-min Rain = 0
KAM1 121342Z 26004KT M04/M11 A3037 RMK A01 T10421109  RH  060%=      5-min Rain = 0
KAM1 121343Z 27004KT M04/M11 A3037 RMK A01 T10421108  RH  060%=      5-min Rain = 0
KAM1 121344Z 27004KT M04/M11 A3037 RMK A01 T10421108  RH  060%=      5-min Rain = 0
KAM1 121345Z 27004KT M04/M11 A3037 RMK A01 T10411107  RH  060%=      5-min Rain = 0
KAM1 121346Z 27004KT M04/M11 A3037 RMK A01 T10401106  RH  060%=      5-min Rain = 0
KAM1 121347Z 27003KT M04/M11 A3037 RMK A01 T10391105  RH  060%=      5-min Rain = 0
KAM1 121348Z 26004KT M04/M10 A3037 RMK A01 T10381104  RH  060%=      5-min Rain = 0
KAM1 121349Z 26004KT M04/M10 A3037 RMK A01 T10361102  RH  060%=      5-min Rain = 0
KAM1 121350Z 26004KT M03/M10 A3037 RMK A01 T10341100  RH  060%=      5-min Rain = 0
KAM1 121351Z 26004KT M03/M10 A3037 RMK A01 T10321099  RH  060%=      5-min Rain = 0
KAM1 121352Z 26004KT M03/M10 A3037 RMK A01 T10301097  RH  060%=      5-min Rain = 0
KAM1 121353Z 25004KT M03/M10 A3037 RMK A01 T10271095  RH  060%=      5-min Rain = 0
KAM1 121354Z 26004KT M03/M09 A3037 RMK A01 T10251093  RH  060%=      5-min Rain = 0
KAM1 121355Z 26004KT M02/M09 A3037 RMK A01 T10231091  RH  060%=      5-min Rain = 0
KAM1 121356Z 25003KT M02/M09 A3037 RMK A01 T10211091  RH  059%=      5-min Rain = 0
KAM1 121357Z 25003KT M02/M09 A3037 RMK A01 T10191089  RH  059%=      5-min Rain = 0
KAM1 121358Z 26003KT M02/M09 A3037 RMK A01 T10171087  RH  059%=      5-min Rain = 0
KAM1 121359Z 25003KT M01/M09 A3037 RMK A01 T10141086  RH  058%=      5-min Rain = 0
KAM1 121400Z 26003KT M01/M09 A3037 RMK A01 T10121085  RH  058%=      5-min Rain = 0
KAM1 121401Z 25003KT M01/M08 A3037 RMK A01 T10101083  RH  058%=      5-min Rain = 0
KAM1 121402Z 25003KT M01/M08 A3037 RMK A01 T10071080  RH  058%=      5-min Rain = 0
KAM1 121403Z 25003KT M00/M08 A3037 RMK A01 T10041079  RH  057%=      5-min Rain = 0
KAM1 121404Z 25003KT M00/M08 A3037 RMK A01 T10011079  RH  056%=      5-min Rain = 0
KAM1 121405Z 24003KT 00/M08 A3037 RMK A01 T00011079  RH  055%=      5-min Rain = 0
KAM1 121406Z 25002KT 00/M08 A3037 RMK A01 T00031080  RH  054%=      5-min Rain = 0
KAM1 121407Z 25002KT 00/M08 A3037 RMK A01 T00041081  RH  053%=      5-min Rain = 0
KAM1 121408Z 25002KT 00/M08 A3037 RMK A01 T00041081  RH  053%=      5-min Rain = 0
KAM1 121409Z 25003KT 01/M08 A3037 RMK A01 T00051082  RH  052%=      5-min Rain = 0
KAM1 121410Z 25003KT 01/M08 A3037 RMK A01 T00051083  RH  052%=      5-min Rain = 0
KAM1 121411Z 25003KT 01/M08 A3037 RMK A01 T00051084  RH  051%=      5-min Rain = 0
KAM1 121412Z 25003KT 01/M08 A3037 RMK A01 T00051084  RH  051%=      5-min Rain = 0
KAM1 121413Z 25003KT 01/M08 A3037 RMK A01 T00051084  RH  051%=      5-min Rain = 0
KAM1 121414Z 25003KT 00/M09 A3037 RMK A01 T00041085  RH  051%=      5-min Rain = 0
KAM1 121415Z 26002KT 01/M09 A3037 RMK A01 T00051086  RH  051%=      5-min Rain = 0
KAM1 121416Z 26003KT 00/M09 A3037 RMK A01 T00041087  RH  050%=      5-min Rain = 0
KAM1 121417Z 26002KT 00/M09 A3037 RMK A01 T00041088  RH  050%=      5-min Rain = 0
KAM1 121418Z 25002KT 00/M09 A3037 RMK A01 T00031088  RH  050%=      5-min Rain = 0
KAM1 121419Z 25003KT 00/M09 A3038 RMK A01 T00031088  RH  050%=      5-min Rain = 0
KAM1 121420Z 24003KT 00/M09 A3038 RMK A01 T00031088  RH  051%=      5-min Rain = 0
KAM1 121421Z 24003KT 00/M09 A3038 RMK A01 T00021088  RH  051%=      5-min Rain = 0
KAM1 121422Z 24003KT 00/M09 A3038 RMK A01 T00021088  RH  051%=      5-min Rain = 0
KAM1 121423Z 24003KT 00/M09 A3038 RMK A01 T00031088  RH  051%=      5-min Rain = 0
KAM1 121424Z 24003KT 00/M09 A3038 RMK A01 T00021088  RH  051%=      5-min Rain = 0
KAM1 121425Z 24004KT 00/M09 A3038 RMK A01 T00021089  RH  051%=      5-min Rain = 0
KAM1 121426Z 24004KT 00/M09 A3038 RMK A01 T00011089  RH  051%=      5-min Rain = 0
KAM1 121427Z 24004KT 00/09 A3038 RMK A01 T00000-90  RH  051%=      5-min Rain = 0
KAM1 121428Z 24004KT 00/09 A3038 RMK A01 T00-00-91  RH  051%=      5-min Rain = 0
KAM1 121429Z 24004KT M00/M09 A3038 RMK A01 T10011091  RH  051%=      5-min Rain = 0
KAM1 121430Z 23004KT M00/M09 A3038 RMK A01 T10021092  RH  051%=      5-min Rain = 0
KAM1 121431Z 23004KT M00/M09 A3038 RMK A01 T10021092  RH  051%=      5-min Rain = 0
KAM1 121432Z 22004KT M00/M09 A3038 RMK A01 T10031092  RH  051%=      5-min Rain = 0
KAM1 121433Z 22004KT M00/M09 A3038 RMK A01 T10031092  RH  051%=      5-min Rain = 0
KAM1 121434Z 22003KT M00/M09 A3038 RMK A01 T10031092  RH  051%=      5-min Rain = 0
KAM1 121435Z 22003KT M00/M09 A3038 RMK A01 T10021090  RH  051%=      5-min Rain = 0
KAM1 121436Z 22002KT M00/M09 A3038 RMK A01 T10021089  RH  052%=      5-min Rain = 0
KAM1 121437Z 22002KT 00/09 A3038 RMK A01 T00000-88  RH  052%=      5-min Rain = 0
KAM1 121438Z 22002KT 00/M09 A3038 RMK A01 T00011087  RH  052%=      5-min Rain = 0
KAM1 121439Z 22002KT 00/M09 A3038 RMK A01 T00031086  RH  052%=      5-min Rain = 0
KAM1 121440Z 22002KT 00/M09 A3038 RMK A01 T00031085  RH  051%=      5-min Rain = 0
KAM1 121441Z 22003KT 00/M09 A3038 RMK A01 T00041085  RH  051%=      5-min Rain = 0
KAM1 121442Z 22003KT 01/M08 A3038 RMK A01 T00051084  RH  051%=      5-min Rain = 0
KAM1 121443Z 22003KT 01/M08 A3038 RMK A01 T00061084  RH  051%=      5-min Rain = 0
KAM1 121444Z 22003KT 01/M08 A3038 RMK A01 T00071083  RH  051%=      5-min Rain = 0
KAM1 121445Z 23002KT 01/M08 A3038 RMK A01 T00091082  RH  051%=      5-min Rain = 0
KAM1 121446Z 23002KT 01/M08 A3039 RMK A01 T00111081  RH  050%=      5-min Rain = 0
KAM1 121447Z 22003KT 01/M08 A3039 RMK A01 T00141078  RH  050%=      5-min Rain = 0
KAM1 121448Z 24003KT 02/M08 A3039 RMK A01 T00171075  RH  050%=      5-min Rain = 0
KAM1 121449Z 23003KT 02/M07 A3039 RMK A01 T00211072  RH  050%=      5-min Rain = 0
KAM1 121450Z 23003KT 03/M07 A3039 RMK A01 T00251070  RH  049%=      5-min Rain = 0
KAM1 121451Z 21005KT 03/M07 A3038 RMK A01 T00281069  RH  049%=      5-min Rain = 0
KAM1 121452Z 21005KT 03/M07 A3038 RMK A01 T00311068  RH  048%=      5-min Rain = 0
KAM1 121453Z 21004KT 03/M07 A3038 RMK A01 T00341067  RH  048%=      5-min Rain = 0
KAM1 121454Z 21004KT 04/M07 A3038 RMK A01 T00361068  RH  046%=      5-min Rain = 0
KAM1 121455Z 23004KT 04/M07 A3039 RMK A01 T00391066  RH  046%=      5-min Rain = 0
KAM1 121456Z 23005KT 04/M07 A3039 RMK A01 T00411067  RH  045%=      5-min Rain = 0
KAM1 121457Z 23005KT 04/M07 A3039 RMK A01 T00421069  RH  044%=      5-min Rain = 0
KAM1 121458Z 22005KT 04/M07 A3039 RMK A01 T00421068  RH  045%=      5-min Rain = 0
KAM1 121459Z 22005KT 04/M07 A3039 RMK A01 T00431068  RH  045%=      5-min Rain = 0
KAM1 121500Z 23006KT 04/M07 A3039 RMK A01 T00441067  RH  044%=      5-min Rain = 0
KAM1 121501Z 21005KT 05/M07 A3039 RMK A01 T00451067  RH  044%=      5-min Rain = 0
KAM1 121502Z 21005KT 05/M07 A3039 RMK A01 T00451068  RH  044%=      5-min Rain = 0
KAM1 121503Z 22005KT 05/M07 A3039 RMK A01 T00451067  RH  044%=      5-min Rain = 0
KAM1 121504Z 22004KT 05/M07 A3039 RMK A01 T00461066  RH  044%=      5-min Rain = 0
KAM1 121505Z 21003KT 05/M07 A3039 RMK A01 T00481066  RH  044%=      5-min Rain = 0
KAM1 121506Z 22004KT 05/M07 A3039 RMK A01 T00491066  RH  043%=      5-min Rain = 0
KAM1 121507Z 20004KT 05/M07 A3039 RMK A01 T00501065  RH  043%=      5-min Rain = 0
KAM1 121508Z 22004KT 05/M06 A3039 RMK A01 T00521063  RH  043%=      5-min Rain = 0
KAM1 121509Z 21005KT 05/M06 A3039 RMK A01 T00541061  RH  043%=      5-min Rain = 0
KAM1 121510Z 22005KT 06/M06 A3039 RMK A01 T00551061  RH  043%=      5-min Rain = 0
KAM1 121511Z 21006KT 06/M06 A3039 RMK A01 T00551062  RH  043%=      5-min Rain = 0
KAM1 121512Z 22004KT 05/M06 A3039 RMK A01 T00531063  RH  043%=      5-min Rain = 0
KAM1 121513Z 22005KT 05/M06 A3039 RMK A01 T00521063  RH  043%=      5-min Rain = 0
KAM1 121514Z 19005KT 05/M06 A3039 RMK A01 T00531062  RH  043%=      5-min Rain = 0
KAM1 121515Z 22004KT 06/M06 A3039 RMK A01 T00551061  RH  043%=      5-min Rain = 0
KAM1 121516Z 21004KT 06/M06 A3039 RMK A01 T00581060  RH  042%=      5-min Rain = 0
KAM1 121517Z 21004KT 06/M06 A3039 RMK A01 T00591060  RH  042%=      5-min Rain = 0
KAM1 121518Z 21005KT 06/M06 A3039 RMK A01 T00601060  RH  042%=      5-min Rain = 0
KAM1 121519Z 21006KT 06/M06 A3039 RMK A01 T00601060  RH  042%=      5-min Rain = 0
KAM1 121520Z 21007KT 06/M06 A3039 RMK A01 T00601058  RH  043%=      5-min Rain = 0
KAM1 121521Z 20007KT 06/M06 A3039 RMK A01 T00611056  RH  043%=      5-min Rain = 0
KAM1 121522Z 20006KT 06/M06 A3039 RMK A01 T00621055  RH  043%=      5-min Rain = 0
KAM1 121523Z 20007KT 06/M06 A3039 RMK A01 T00631055  RH  043%=      5-min Rain = 0
KAM1 121524Z 20006KT 06/M06 A3039 RMK A01 T00641055  RH  042%=      5-min Rain = 0
KAM1 121525Z 20007KT 07/M05 A3039 RMK A01 T00661054  RH  042%=      5-min Rain = 0
KAM1 121526Z 20006KT 07/M06 A3039 RMK A01 T00671055  RH  041%=      5-min Rain = 0
KAM1 121527Z 20006KT 07/M06 A3039 RMK A01 T00671055  RH  042%=      5-min Rain = 0
KAM1 121528Z 19007KT 07/M05 A3039 RMK A01 T00681054  RH  041%=      5-min Rain = 0
KAM1 121529Z 22006KT 07/M06 A3039 RMK A01 T00691055  RH  041%=      5-min Rain = 0
KAM1 121530Z 22006KT 07/M06 A3039 RMK A01 T00671056  RH  041%=      5-min Rain = 0
KAM1 121531Z 21007KT 07/M06 A3039 RMK A01 T00661056  RH  041%=      5-min Rain = 0
KAM1 121532Z 21006KT 07/M06 A3039 RMK A01 T00671056  RH  041%=      5-min Rain = 0
KAM1 121533Z 20007KT 07/M06 A3039 RMK A01 T00671056  RH  041%=      5-min Rain = 0
KAM1 121534Z 23007KT 07/M06 A3039 RMK A01 T00681055  RH  041%=      5-min Rain = 0
KAM1 121535Z 23008KT 07/M06 A3039 RMK A01 T00691055  RH  041%=      5-min Rain = 0
KAM1 121536Z 22008KT 07/M06 A3039 RMK A01 T00691055  RH  041%=      5-min Rain = 0
KAM1 121537Z 21006KT 07/M06 A3039 RMK A01 T00701055  RH  040%=      5-min Rain = 0
KAM1 121538Z 23007KT 07/M05 A3039 RMK A01 T00711054  RH  041%=      5-min Rain = 0
KAM1 121539Z 22007KT 07/M06 A3039 RMK A01 T00721056  RH  040%=      5-min Rain = 0
KAM1 121540Z 22008KT 07/M06 A3039 RMK A01 T00701057  RH  040%=      5-min Rain = 0
KAM1 121541Z 22007KT 07/M06 A3039 RMK A01 T00701056  RH  040%=      5-min Rain = 0
KAM1 121542Z 20008KT 07/M06 A3039 RMK A01 T00701057  RH  040%=      5-min Rain = 0
KAM1 121543Z 20007KT 07/M06 A3039 RMK A01 T00691058  RH  040%=      5-min Rain = 0
KAM1 121544Z 20007KT 07/M06 A3039 RMK A01 T00691057  RH  040%=      5-min Rain = 0
KAM1 121545Z 22007KT 07/M06 A3039 RMK A01 T00711055  RH  040%=      5-min Rain = 0
KAM1 121546Z 22008KT 07/M06 A3039 RMK A01 T00731055  RH  040%=      5-min Rain = 0
KAM1 121547Z 22008KT 07/M06 A3039 RMK A01 T00741056  RH  039%=      5-min Rain = 0
KAM1 121548Z 22008KT 07/M06 A3039 RMK A01 T00731056  RH  039%=      5-min Rain = 0
KAM1 121549Z 22008KT 07/M06 A3039 RMK A01 T00731057  RH  039%=      5-min Rain = 0
KAM1 121550Z 22008KT 07/M06 A3039 RMK A01 T00721057  RH  039%=      5-min Rain = 0
KAM1 121551Z 22008KT 07/M06 A3039 RMK A01 T00721057  RH  039%=      5-min Rain = 0
KAM1 121552Z 22006KT 07/M06 A3039 RMK A01 T00721056  RH  040%=      5-min Rain = 0
KAM1 121553Z 22008KT 08/M06 A3039 RMK A01 T00751055  RH  039%=      5-min Rain = 0
KAM1 121554Z 23008KT 08/M06 A3039 RMK A01 T00771055  RH  039%=      5-min Rain = 0
KAM1 121555Z 23008KT 08/M06 A3039 RMK A01 T00771056  RH  039%=      5-min Rain = 0
KAM1 121556Z 23008KT 08/M05 A3039 RMK A01 T00781054  RH  039%=      5-min Rain = 0
KAM1 121557Z 23008KT 08/M05 A3039 RMK A01 T00801054  RH  038%=      5-min Rain = 0
KAM1 121558Z 21008KT 08/M06 A3039 RMK A01 T00801056  RH  038%=      5-min Rain = 0
KAM1 121559Z 21007KT 08/M06 A3039 RMK A01 T00781057  RH  038%=      5-min Rain = 0
KAM1 121600Z 19007KT 08/M06 A3039 RMK A01 T00771058  RH  038%=      5-min Rain = 0
KAM1 121601Z 20008KT 08/M06 A3039 RMK A01 T00761058  RH  038%=      5-min Rain = 0
KAM1 121602Z 20008KT 08/M06 A3039 RMK A01 T00771057  RH  038%=      5-min Rain = 0
KAM1 121603Z 20006KT 08/M06 A3039 RMK A01 T00791057  RH  038%=      5-min Rain = 0
KAM1 121604Z 20006KT 08/M06 A3039 RMK A01 T00781057  RH  038%=      5-min Rain = 0
KAM1 121605Z 19006KT 08/M06 A3039 RMK A01 T00801057  RH  037%=      5-min Rain = 0
KAM1 121606Z 19007KT 08/M06 A3039 RMK A01 T00811058  RH  037%=      5-min Rain = 0
KAM1 121607Z 20006KT 08/M06 A3039 RMK A01 T00811058  RH  037%=      5-min Rain = 0
KAM1 121608Z 19006KT 08/M06 A3039 RMK A01 T00811058  RH  037%=      5-min Rain = 0
KAM1 121609Z 20003KT 08/M06 A3039 RMK A01 T00831057  RH  037%=      5-min Rain = 0
KAM1 121610Z 20004KT 08/M06 A3039 RMK A01 T00841057  RH  036%=      5-min Rain = 0
KAM1 121611Z 19007KT 09/M06 A3039 RMK A01 T00851057  RH  036%=      5-min Rain = 0
KAM1 121612Z 20006KT 09/M06 A3039 RMK A01 T00851058  RH  036%=      5-min Rain = 0
KAM1 121613Z 19006KT 09/M06 A3039 RMK A01 T00861056  RH  036%=      5-min Rain = 0
KAM1 121614Z 20006KT 09/M06 A3039 RMK A01 T00871056  RH  036%=      5-min Rain = 0
KAM1 121615Z 21005KT 09/M06 A3039 RMK A01 T00881056  RH  035%=      5-min Rain = 0
KAM1 121616Z 23007KT 09/M06 A3039 RMK A01 T00871059  RH  035%=      5-min Rain = 0
KAM1 121617Z 22006KT 08/M06 A3038 RMK A01 T00841061  RH  035%=      5-min Rain = 0
KAM1 121618Z 21003KT 08/M06 A3039 RMK A01 T00831059  RH  036%=      5-min Rain = 0
KAM1 121619Z 23005KT 09/M06 A3039 RMK A01 T00851058  RH  036%=      5-min Rain = 0
KAM1 121620Z 22005KT 09/M06 A3039 RMK A01 T00871058  RH  035%=      5-min Rain = 0
KAM1 121621Z 21008KT 09/M06 A3038 RMK A01 T00881059  RH  035%=      5-min Rain = 0
KAM1 121622Z 21007KT 09/M06 A3039 RMK A01 T00881059  RH  035%=      5-min Rain = 0
KAM1 121623Z 20006KT 09/M06 A3038 RMK A01 T00881059  RH  035%=      5-min Rain = 0
KAM1 121624Z 20006KT 09/M06 A3038 RMK A01 T00891062  RH  034%=      5-min Rain = 0
KAM1 121625Z 21007KT 09/M06 A3038 RMK A01 T00871060  RH  035%=      5-min Rain = 0
KAM1 121626Z 22007KT 09/M06 A3038 RMK A01 T00891059  RH  034%=      5-min Rain = 0
KAM1 121627Z 21006KT 09/M06 A3038 RMK A01 T00901062  RH  034%=      5-min Rain = 0
KAM1 121628Z 21005KT 09/M06 A3038 RMK A01 T00901063  RH  033%=      5-min Rain = 0
KAM1 121629Z 23007KT 09/M06 A3038 RMK A01 T00901063  RH  033%=      5-min Rain = 0
KAM1 121630Z 20005KT 09/M06 A3038 RMK A01 T00901063  RH  033%=      5-min Rain = 0
KAM1 121631Z 19006KT 09/M06 A3038 RMK A01 T00931059  RH  034%=      5-min Rain = 0
KAM1 121632Z 20006KT 10/M06 A3038 RMK A01 T00951060  RH  033%=      5-min Rain = 0
KAM1 121633Z 20006KT 09/M06 A3038 RMK A01 T00941063  RH  033%=      5-min Rain = 0
KAM1 121634Z 17007KT 09/M06 A3038 RMK A01 T00911064  RH  033%=      5-min Rain = 0
KAM1 121635Z 18006KT 09/M06 A3038 RMK A01 T00921062  RH  033%=      5-min Rain = 0
KAM1 121636Z 22005KT 09/M06 A3038 RMK A01 T00941060  RH  033%=      5-min Rain = 0
KAM1 121637Z 22005KT 10/M06 A3038 RMK A01 T00951061  RH  033%=      5-min Rain = 0
KAM1 121638Z 20005KT 10/M06 A3038 RMK A01 T00961061  RH  033%=      5-min Rain = 0
KAM1 121639Z 19007KT 10/M06 A3038 RMK A01 T00971064  RH  032%=      5-min Rain = 0
KAM1 121640Z 19004KT 10/M07 A3038 RMK A01 T00971067  RH  031%=      5-min Rain = 0
KAM1 121641Z 20002KT 09/M07 A3038 RMK A01 T00941069  RH  031%=      5-min Rain = 0
KAM1 121642Z 18005KT 09/M07 A3038 RMK A01 T00941068  RH  031%=      5-min Rain = 0
KAM1 121643Z 16005KT 10/M07 A3038 RMK A01 T00961066  RH  031%=      5-min Rain = 0
KAM1 121644Z 18007KT 10/M07 A3038 RMK A01 T00961068  RH  031%=      5-min Rain = 0
KAM1 121645Z 17006KT 10/M07 A3038 RMK A01 T00961069  RH  031%=      5-min Rain = 0
KAM1 121646Z 17005KT 10/M07 A3038 RMK A01 T00951069  RH  031%=      5-min Rain = 0
KAM1 121647Z 17005KT 10/M07 A3038 RMK A01 T00951067  RH  031%=      5-min Rain = 0
KAM1 121648Z 19007KT 10/M07 A3037 RMK A01 T00951067  RH  031%=      5-min Rain = 0
KAM1 121649Z 20006KT 10/M07 A3037 RMK A01 T00951066  RH  031%=      5-min Rain = 0
KAM1 121650Z 21005KT 10/M07 A3037 RMK A01 T00961066  RH  031%=      5-min Rain = 0
KAM1 121651Z 18004KT 10/M07 A3037 RMK A01 T00951067  RH  031%=      5-min Rain = 0
KAM1 121652Z 17007KT 10/M07 A3037 RMK A01 T00961065  RH  031%=      5-min Rain = 0
KAM1 121653Z 16003KT 10/M07 A3037 RMK A01 T00971066  RH  031%=      5-min Rain = 0
KAM1 121654Z 20003KT 10/M07 A3037 RMK A01 T00961067  RH  031%=      5-min Rain = 0
KAM1 121655Z 20002KT 10/M07 A3037 RMK A01 T00961066  RH  031%=      5-min Rain = 0
KAM1 121656Z 25005KT 10/M06 A3037 RMK A01 T00991063  RH  031%=      5-min Rain = 0
KAM1 121657Z 24004KT 10/M06 A3037 RMK A01 T01021064  RH  031%=      5-min Rain = 0
KAM1 121658Z 15005KT 10/M06 A3037 RMK A01 T01041063  RH  030%=      5-min Rain = 0
KAM1 121659Z 15004KT 11/M06 A3037 RMK A01 T01061064  RH  030%=      5-min Rain = 0
KAM1 121700Z 17005KT 11/M07 A3037 RMK A01 T01071065  RH  029%=      5-min Rain = 0
KAM1 121701Z 16005KT 11/M07 A3037 RMK A01 T01071067  RH  029%=      5-min Rain = 0
KAM1 121702Z 14004KT 11/M07 A3037 RMK A01 T01051069  RH  029%=      5-min Rain = 0
KAM1 121703Z 16004KT 10/M07 A3037 RMK A01 T01041070  RH  029%=      5-min Rain = 0
KAM1 121704Z 15003KT 10/M07 A3037 RMK A01 T01031070  RH  029%=      5-min Rain = 0
KAM1 121705Z 23004KT 11/M07 A3037 RMK A01 T01061066  RH  029%=      5-min Rain = 0
KAM1 121706Z 18003KT 11/M06 A3037 RMK A01 T01091064  RH  029%=      5-min Rain = 0
KAM1 121707Z 17004KT 11/M06 A3037 RMK A01 T01111063  RH  029%=      5-min Rain = 0
KAM1 121708Z 16003KT 11/M07 A3037 RMK A01 T01081066  RH  029%=      5-min Rain = 0
KAM1 121709Z 20003KT 11/M07 A3037 RMK A01 T01061067  RH  029%=      5-min Rain = 0
KAM1 121710Z 21002G7KT 11/M07 A3037 RMK A01 T01051068  RH  029%=      5-min Rain = 0
KAM1 121711Z 18007G13KT 11/M07 A3036 RMK A01 T01071066  RH  029%=      5-min Rain = 0
KAM1 121712Z 18007KT 11/M07 A3037 RMK A01 T01111066  RH  028%=      5-min Rain = 0
KAM1 121713Z 17006KT 11/M07 A3037 RMK A01 T01111068  RH  028%=      5-min Rain = 0
KAM1 121714Z 16004KT 11/M07 A3037 RMK A01 T01091068  RH  028%=      5-min Rain = 0
KAM1 121715Z 16005KT 11/M07 A3036 RMK A01 T01081068  RH  028%=      5-min Rain = 0
KAM1 121716Z 20004KT 11/M07 A3036 RMK A01 T01061068  RH  029%=      5-min Rain = 0
KAM1 121717Z 20002KT 10/M07 A3036 RMK A01 T01031070  RH  029%=      5-min Rain = 0
KAM1 121718Z 28001KT 10/M07 A3036 RMK A01 T01021069  RH  029%=      5-min Rain = 0
KAM1 121719Z 16007KT 10/M07 A3036 RMK A01 T01041067  RH  029%=      5-min Rain = 0
KAM1 121720Z 15004KT 11/M07 A3036 RMK A01 T01061070  RH  028%=      5-min Rain = 0
KAM1 121721Z 17003KT 11/M07 A3036 RMK A01 T01051072  RH  028%=      5-min Rain = 0
KAM1 121722Z 20005KT 11/M07 A3036 RMK A01 T01061072  RH  028%=      5-min Rain = 0
KAM1 121723Z 17006KT 11/M07 A3036 RMK A01 T01071073  RH  027%=      5-min Rain = 0
KAM1 121724Z 18006KT 11/M07 A3036 RMK A01 T01071074  RH  027%=      5-min Rain = 0
KAM1 121725Z 17004KT 11/M08 A3036 RMK A01 T01051076  RH  027%=      5-min Rain = 0
KAM1 121726Z 21006KT 11/M07 A3036 RMK A01 T01051074  RH  028%=      5-min Rain = 0
KAM1 121727Z 21004KT 11/M08 A3036 RMK A01 T01071079  RH  026%=      5-min Rain = 0
KAM1 121728Z 21006KT 11/M08 A3036 RMK A01 T01071079  RH  026%=      5-min Rain = 0
KAM1 121729Z 23003KT 11/M08 A3036 RMK A01 T01071077  RH  027%=      5-min Rain = 0
KAM1 121730Z 19003KT 11/M08 A3036 RMK A01 T01081077  RH  027%=      5-min Rain = 0
KAM1 121731Z 18005KT 11/M08 A3036 RMK A01 T01081077  RH  026%=      5-min Rain = 0
KAM1 121732Z 19005KT 11/M08 A3036 RMK A01 T01101077  RH  026%=      5-min Rain = 0
KAM1 121733Z 17006KT 11/M08 A3036 RMK A01 T01111078  RH  026%=      5-min Rain = 0
KAM1 121734Z 14002KT 11/M08 A3036 RMK A01 T01121079  RH  025%=      5-min Rain = 0
KAM1 121735Z 08001KT 11/M08 A3035 RMK A01 T01111078  RH  026%=      5-min Rain = 0
KAM1 121736Z 22002KT 11/M08 A3035 RMK A01 T01111077  RH  026%=      5-min Rain = 0
KAM1 121737Z 24005KT 11/M08 A3035 RMK A01 T01121078  RH  026%=      5-min Rain = 0
KAM1 121738Z 20004KT 11/M08 A3035 RMK A01 T01101083  RH  025%=      5-min Rain = 0
KAM1 121739Z 20001KT 11/M08 A3035 RMK A01 T01101082  RH  025%=      5-min Rain = 0
KAM1 121740Z 23008KT 11/M08 A3035 RMK A01 T01111081  RH  025%=      5-min Rain = 0
KAM1 121741Z 25004KT 11/M09 A3035 RMK A01 T01111085  RH  024%=      5-min Rain = 0
KAM1 121742Z 26004KT 11/M09 A3035 RMK A01 T01091086  RH  025%=      5-min Rain = 0
KAM1 121743Z 25005KT 11/M09 A3035 RMK A01 T01081087  RH  025%=      5-min Rain = 0
KAM1 121744Z 21006KT 11/M09 A3035 RMK A01 T01081085  RH  025%=      5-min Rain = 0
KAM1 121745Z 19005KT 11/M08 A3035 RMK A01 T01131083  RH  025%=      5-min Rain = 0
KAM1 121746Z 18007KT 11/M08 A3035 RMK A01 T01141083  RH  024%=      5-min Rain = 0
KAM1 121747Z 20006KT 11/M08 A3035 RMK A01 T01141081  RH  025%=      5-min Rain = 0
KAM1 121748Z 25004KT 11/M08 A3035 RMK A01 T01141083  RH  024%=      5-min Rain = 0
KAM1 121749Z 25003KT 12/M09 A3035 RMK A01 T01151085  RH  024%=      5-min Rain = 0
KAM1 121750Z 27003KT 11/M09 A3035 RMK A01 T01131085  RH  024%=      5-min Rain = 0
KAM1 121751Z 23005KT 11/M08 A3035 RMK A01 T01131084  RH  024%=      5-min Rain = 0
KAM1 121752Z 19005KT 11/M09 A3035 RMK A01 T01121085  RH  024%=      5-min Rain = 0
KAM1 121753Z 19009KT 11/M08 A3035 RMK A01 T01141083  RH  024%=      5-min Rain = 0
KAM1 121754Z 20007KT 12/M08 A3035 RMK A01 T01161084  RH  024%=      5-min Rain = 0
KAM1 121755Z 20003KT 11/M09 A3034 RMK A01 T01141086  RH  024%=      5-min Rain = 0
KAM1 121756Z 21006KT 11/M09 A3034 RMK A01 T01131087  RH  024%=      5-min Rain = 0
KAM1 121757Z 19009KT 11/M08 A3034 RMK A01 T01141084  RH  024%=      5-min Rain = 0
KAM1 121758Z 21006KT 12/M08 A3034 RMK A01 T01151083  RH  024%=      5-min Rain = 0
KAM1 121759Z 22006KT 11/M08 A3034 RMK A01 T01141084  RH  024%=      5-min Rain = 0
KAM1 121800Z 24004KT 11/M09 A3034 RMK A01 T01141085  RH  024%=      5-min Rain = 0
KAM1 121801Z 26006KT 11/M09 A3034 RMK A01 T01131086  RH  024%=      5-min Rain = 0
KAM1 121802Z 24005KT 11/M09 A3034 RMK A01 T01141085  RH  024%=      5-min Rain = 0
KAM1 121803Z 22008KT 11/M09 A3034 RMK A01 T01141086  RH  024%=      5-min Rain = 0
KAM1 121804Z 22008KT 12/M09 A3034 RMK A01 T01181086  RH  023%=      5-min Rain = 0
KAM1 121805Z 22007KT 12/M09 A3034 RMK A01 T01191088  RH  023%=      5-min Rain = 0
KAM1 121806Z 23005KT 12/M09 A3034 RMK A01 T01171091  RH  022%=      5-min Rain = 0
KAM1 121807Z 27002KT 12/M09 A3034 RMK A01 T01151091  RH  023%=      5-min Rain = 0
KAM1 121808Z 22001KT 12/M09 A3034 RMK A01 T01161089  RH  023%=      5-min Rain = 0
KAM1 121809Z 21002G7KT 12/M09 A3034 RMK A01 T01171088  RH  023%=      5-min Rain = 0
KAM1 121810Z 20008KT 12/M09 A3034 RMK A01 T01191085  RH  023%=      5-min Rain = 0
KAM1 121811Z 19005KT 12/M08 A3034 RMK A01 T01211084  RH  023%=      5-min Rain = 0
KAM1 121812Z 14003KT 12/M09 A3034 RMK A01 T01211086  RH  023%=      5-min Rain = 0
KAM1 121813Z 15001KT 12/M09 A3034 RMK A01 T01181088  RH  023%=      5-min Rain = 0
KAM1 121814Z 07001KT 12/M09 A3034 RMK A01 T01171087  RH  023%=      5-min Rain = 0
KAM1 121815Z 10002KT 12/M08 A3034 RMK A01 T01201084  RH  023%=      5-min Rain = 0
KAM1 121816Z 14002KT 12/M09 A3033 RMK A01 T01211085  RH  023%=      5-min Rain = 0
KAM1 121817Z 23005G10KT 12/M09 A3033 RMK A01 T01221086  RH  023%=      5-min Rain = 0
KAM1 121818Z 24011G16KT 12/M09 A3033 RMK A01 T01231085  RH  023%=      5-min Rain = 0
KAM1 121819Z 19009KT 13/M08 A3033 RMK A01 T01261084  RH  022%=      5-min Rain = 0
KAM1 121820Z 21009KT 13/M09 A3033 RMK A01 T01271088  RH  021%=      5-min Rain = 0
KAM1 121821Z 22009KT 13/M09 A3033 RMK A01 T01251091  RH  021%=      5-min Rain = 0
KAM1 121822Z 22009KT 12/M09 A3033 RMK A01 T01231091  RH  022%=      5-min Rain = 0
KAM1 121823Z 23009KT 12/M09 A3033 RMK A01 T01221091  RH  022%=      5-min Rain = 0
KAM1 121824Z 24005KT 12/M09 A3033 RMK A01 T01221088  RH  022%=      5-min Rain = 0
KAM1 121825Z 22002KT 12/M09 A3033 RMK A01 T01221088  RH  022%=      5-min Rain = 0
KAM1 121826Z 24002KT 12/M09 A3033 RMK A01 T01211088  RH  022%=      5-min Rain = 0
KAM1 121827Z 19009KT 12/M09 A3033 RMK A01 T01231085  RH  023%=      5-min Rain = 0
KAM1 121828Z 19008KT 13/M09 A3033 RMK A01 T01251086  RH  022%=      5-min Rain = 0
KAM1 121829Z 20007KT 13/M08 A3033 RMK A01 T01261084  RH  022%=      5-min Rain = 0
KAM1 121830Z 19007KT 13/M09 A3033 RMK A01 T01271087  RH  022%=      5-min Rain = 0
KAM1 121831Z 17007KT 13/M09 A3033 RMK A01 T01251089  RH  022%=      5-min Rain = 0
KAM1 121832Z 19006KT 12/M09 A3033 RMK A01 T01241089  RH  022%=      5-min Rain = 0
KAM1 121833Z 17005KT 12/M09 A3033 RMK A01 T01241088  RH  022%=      5-min Rain = 0
KAM1 121834Z 20005KT 13/M09 A3033 RMK A01 T01251089  RH  022%=      5-min Rain = 0
KAM1 121835Z 26005KT 13/M09 A3033 RMK A01 T01261091  RH  021%=      5-min Rain = 0
KAM1 121836Z 25005KT 13/M09 A3033 RMK A01 T01251092  RH  021%=      5-min Rain = 0
KAM1 121837Z 26005KT 13/M09 A3033 RMK A01 T01251094  RH  021%=      5-min Rain = 0
KAM1 121838Z 24005KT 12/M09 A3033 RMK A01 T01241093  RH  021%=      5-min Rain = 0
KAM1 121839Z 19005KT 13/M09 A3033 RMK A01 T01261091  RH  021%=      5-min Rain = 0
KAM1 121840Z 18005KT 13/M09 A3032 RMK A01 T01271091  RH  021%=      5-min Rain = 0
KAM1 121841Z 21003KT 13/M09 A3032 RMK A01 T01261092  RH  021%=      5-min Rain = 0
KAM1 121842Z 22003KT 13/M09 A3032 RMK A01 T01251093  RH  021%=      5-min Rain = 0
KAM1 121843Z 18003G8KT 12/M09 A3032 RMK A01 T01241094  RH  021%=      5-min Rain = 0
KAM1 121844Z 19008KT 12/M09 A3032 RMK A01 T01231090  RH  022%=      5-min Rain = 0
KAM1 121845Z 20007KT 12/M09 A3032 RMK A01 T01241086  RH  022%=      5-min Rain = 0
KAM1 121846Z 19003G8KT 12/M09 A3032 RMK A01 T01241088  RH  022%=      5-min Rain = 0
KAM1 121847Z 20008KT 13/M09 A3032 RMK A01 T01251086  RH  022%=      5-min Rain = 0
KAM1 121848Z 19005KT 13/M09 A3032 RMK A01 T01261088  RH  022%=      5-min Rain = 0
KAM1 121849Z 19008KT 13/M09 A3032 RMK A01 T01291086  RH  022%=      5-min Rain = 0
KAM1 121850Z 23008KT 13/M09 A3032 RMK A01 T01301086  RH  021%=      5-min Rain = 0
KAM1 121851Z 24007KT 13/M09 A3032 RMK A01 T01291086  RH  021%=      5-min Rain = 0
KAM1 121852Z 25006KT 13/M09 A3032 RMK A01 T01311085  RH  021%=      5-min Rain = 0
KAM1 121853Z 25003KT 13/M09 A3032 RMK A01 T01271090  RH  021%=      5-min Rain = 0
KAM1 121854Z 26003KT 12/M09 A3032 RMK A01 T01241090  RH  022%=      5-min Rain = 0
KAM1 121855Z 24002KT 12/M09 A3032 RMK A01 T01231087  RH  022%=      5-min Rain = 0
KAM1 121856Z 16004KT 13/M08 A3032 RMK A01 T01271084  RH  022%=      5-min Rain = 0
KAM1 121857Z 23004KT 13/M08 A3032 RMK A01 T01311082  RH  022%=      5-min Rain = 0
KAM1 121858Z 24005KT 13/M08 A3032 RMK A01 T01341084  RH  021%=      5-min Rain = 0
KAM1 121859Z 24006KT 13/M08 A3032 RMK A01 T01341084  RH  021%=      5-min Rain = 0
KAM1 121900Z 25004KT 13/M09 A3032 RMK A01 T01331086  RH  021%=      5-min Rain = 0
KAM1 121901Z 24002KT 13/M09 A3031 RMK A01 T01311087  RH  021%=      5-min Rain = 0
KAM1 121902Z 19007KT 13/M09 A3031 RMK A01 T01301086  RH  021%=      5-min Rain = 0
KAM1 121903Z 23008G13KT 13/M08 A3031 RMK A01 T01331084  RH  021%=      5-min Rain = 0
KAM1 121904Z 23009KT 14/M09 A3031 RMK A01 T01351086  RH  021%=      5-min Rain = 0
KAM1 121905Z 22007KT 14/M09 A3031 RMK A01 T01351085  RH  021%=      5-min Rain = 0
KAM1 121906Z 17004KT 14/M09 A3031 RMK A01 T01351086  RH  021%=      5-min Rain = 0
KAM1 121907Z 24004KT 14/M09 A3031 RMK A01 T01351086  RH  021%=      5-min Rain = 0
KAM1 121908Z 24007KT 14/M09 A3031 RMK A01 T01351087  RH  021%=      5-min Rain = 0
KAM1 121909Z 25007KT 13/M09 A3031 RMK A01 T01331088  RH  021%=      5-min Rain = 0
KAM1 121910Z 24006KT 13/M09 A3031 RMK A01 T01331087  RH  021%=      5-min Rain = 0
KAM1 121911Z 21009KT 14/M08 A3031 RMK A01 T01351084  RH  021%=      5-min Rain = 0
KAM1 121912Z 21009KT 14/M09 A3031 RMK A01 T01381087  RH  020%=      5-min Rain = 0
KAM1 121913Z 22007KT 14/M09 A3031 RMK A01 T01371088  RH  020%=      5-min Rain = 0
KAM1 121914Z 22007KT 14/M09 A3031 RMK A01 T01351089  RH  020%=      5-min Rain = 0
KAM1 121915Z 24006KT 13/M09 A3031 RMK A01 T01321090  RH  020%=      5-min Rain = 0
KAM1 121916Z 26006KT 13/M09 A3031 RMK A01 T01301090  RH  021%=      5-min Rain = 0
KAM1 121917Z 26007KT 13/M09 A3031 RMK A01 T01301087  RH  021%=      5-min Rain = 0
KAM1 121918Z 25007KT 13/M09 A303 RMK A01 T01321087  RH  021%=      5-min Rain = 0
KAM1 121919Z 25005KT 13/M09 A303 RMK A01 T01321088  RH  021%=      5-min Rain = 0
KAM1 121920Z 23006KT 13/M09 A303 RMK A01 T01301087  RH  021%=      5-min Rain = 0
KAM1 121921Z 23008KT 13/M08 A303 RMK A01 T01331084  RH  021%=      5-min Rain = 0
KAM1 121922Z 22008KT 14/M08 A303 RMK A01 T01351083  RH  021%=      5-min Rain = 0
KAM1 121923Z 22010KT 14/M08 A303 RMK A01 T01381082  RH  021%=      5-min Rain = 0
KAM1 121924Z 22008KT 14/M08 A303 RMK A01 T01401082  RH  021%=      5-min Rain = 0
KAM1 121925Z 21004KT 14/M09 A303 RMK A01 T01391086  RH  020%=      5-min Rain = 0
KAM1 121926Z 18005G11KT 14/M09 A303 RMK A01 T01361085  RH  021%=      5-min Rain = 0
KAM1 121927Z 19008KT 14/M08 A303 RMK A01 T01371084  RH  021%=      5-min Rain = 0
KAM1 121928Z 21008KT 14/M08 A303 RMK A01 T01411081  RH  021%=      5-min Rain = 0
KAM1 121929Z 24010KT 14/M08 A303 RMK A01 T01431083  RH  020%=      5-min Rain = 0
KAM1 121930Z 24009KT 14/M08 A303 RMK A01 T01411084  RH  020%=      5-min Rain = 0
KAM1 121931Z 23010KT 14/M09 A303 RMK A01 T01391085  RH  020%=      5-min Rain = 0
KAM1 121932Z 23011KT 14/M08 A3029 RMK A01 T01401084  RH  020%=      5-min Rain = 0
KAM1 121933Z 24009KT 14/M09 A3029 RMK A01 T01401087  RH  020%=      5-min Rain = 0
KAM1 121934Z 22012KT 14/M09 A3029 RMK A01 T01381088  RH  020%=      5-min Rain = 0
KAM1 121935Z 23009KT 14/M09 A3029 RMK A01 T01371088  RH  020%=      5-min Rain = 0
KAM1 121936Z 22008KT 14/M09 A3029 RMK A01 T01361088  RH  020%=      5-min Rain = 0
KAM1 121937Z 24004KT 14/M09 A3029 RMK A01 T01351090  RH  020%=      5-min Rain = 0
KAM1 121938Z 22008KT 13/M09 A3029 RMK A01 T01331090  RH  020%=      5-min Rain = 0
KAM1 121939Z 21007KT 13/M09 A3029 RMK A01 T01331088  RH  021%=      5-min Rain = 0
KAM1 121940Z 22005KT 13/M09 A3029 RMK A01 T01331087  RH  021%=      5-min Rain = 0
KAM1 121941Z 25009KT 13/M09 A3029 RMK A01 T01331088  RH  021%=      5-min Rain = 0
KAM1 121942Z 25011KT 13/M09 A3029 RMK A01 T01341087  RH  021%=      5-min Rain = 0
KAM1 121943Z 24006KT 13/M09 A3029 RMK A01 T01341089  RH  020%=      5-min Rain = 0
KAM1 121944Z 20004KT 13/M09 A3029 RMK A01 T01311090  RH  020%=      5-min Rain = 0
KAM1 121945Z 18005KT 13/M09 A3029 RMK A01 T01301089  RH  021%=      5-min Rain = 0
KAM1 121946Z 23005KT 13/M09 A3028 RMK A01 T01301089  RH  021%=      5-min Rain = 0
KAM1 121947Z 28007KT 13/M09 A3028 RMK A01 T01321087  RH  021%=      5-min Rain = 0
KAM1 121948Z 29005KT 13/M09 A3028 RMK A01 T01341088  RH  020%=      5-min Rain = 0
KAM1 121949Z 27002KT 13/M09 A3028 RMK A01 T01341088  RH  020%=      5-min Rain = 0
KAM1 121950Z 28006KT 13/M09 A3028 RMK A01 T01341088  RH  020%=      5-min Rain = 0
KAM1 121951Z 27005KT 13/M09 A3028 RMK A01 T01341088  RH  020%=      5-min Rain = 0
KAM1 121952Z 21007KT 14/M09 A3028 RMK A01 T01351088  RH  020%=      5-min Rain = 0
KAM1 121953Z 19006KT 14/M09 A3028 RMK A01 T01351089  RH  020%=      5-min Rain = 0
KAM1 121954Z 20008KT 14/M09 A3028 RMK A01 T01351089  RH  020%=      5-min Rain = 0
KAM1 121955Z 21008KT 14/M09 A3028 RMK A01 T01351088  RH  020%=      5-min Rain = 0
KAM1 121956Z 18009KT 14/M09 A3028 RMK A01 T01361087  RH  020%=      5-min Rain = 0
KAM1 121957Z 19009KT 14/M08 A3028 RMK A01 T01421084  RH  020%=      5-min Rain = 0
KAM1 121958Z 18011KT 14/M09 A3028 RMK A01 T01431085  RH  020%=      5-min Rain = 0
KAM1 121959Z 18007G12KT 14/M09 A3028 RMK A01 T01421086  RH  020%=      5-min Rain = 0
KAM1 122000Z 17007KT 14/M09 A3028 RMK A01 T01401087  RH  020%=      5-min Rain = 0
KAM1 122001Z 18007KT 14/M09 A3028 RMK A01 T01411086  RH  020%=      5-min Rain = 0
KAM1 122002Z 16007KT 14/M09 A3028 RMK A01 T01421088  RH  019%=      5-min Rain = 0
KAM1 122003Z 15008KT 14/M09 A3028 RMK A01 T01401089  RH  020%=      5-min Rain = 0
KAM1 122004Z 15007KT 14/M09 A3028 RMK A01 T01401087  RH  020%=      5-min Rain = 0
KAM1 122005Z 15007KT 14/M09 A3028 RMK A01 T01431085  RH  020%=      5-min Rain = 0
KAM1 122006Z 13004KT 14/M09 A3028 RMK A01 T01421088  RH  019%=      5-min Rain = 0
KAM1 122007Z 15002KT 14/M09 A3027 RMK A01 T01381091  RH  019%=      5-min Rain = 0
KAM1 122008Z 16003KT 14/M09 A3027 RMK A01 T01361091  RH  020%=      5-min Rain = 0
KAM1 122009Z 19006KT 14/M09 A3027 RMK A01 T01361089  RH  020%=      5-min Rain = 0
KAM1 122010Z 17008KT 14/M09 A3027 RMK A01 T01391087  RH  020%=      5-min Rain = 0
KAM1 122011Z 19010KT 14/M09 A3027 RMK A01 T01381090  RH  020%=      5-min Rain = 0
KAM1 122012Z 18009KT 14/M09 A3027 RMK A01 T01371090  RH  020%=      5-min Rain = 0
KAM1 122013Z 17008KT 14/M09 A3027 RMK A01 T01361089  RH  020%=      5-min Rain = 0
KAM1 122014Z 19008KT 14/M09 A3027 RMK A01 T01381088  RH  020%=      5-min Rain = 0
KAM1 122015Z 23007KT 14/M09 A3027 RMK A01 T01391087  RH  020%=      5-min Rain = 0
KAM1 122016Z 23007KT 14/M09 A3027 RMK A01 T01411088  RH  020%=      5-min Rain = 0
KAM1 122017Z 22007G12KT 14/M09 A3027 RMK A01 T01431087  RH  020%=      5-min Rain = 0
KAM1 122018Z 20011KT 15/M09 A3027 RMK A01 T01461088  RH  019%=      5-min Rain = 0
KAM1 122019Z 20006KT 14/M09 A3027 RMK A01 T01421092  RH  019%=      5-min Rain = 0
KAM1 122020Z 20003KT 14/M09 A3027 RMK A01 T01381090  RH  020%=      5-min Rain = 0
KAM1 122021Z 20007KT 14/M09 A3027 RMK A01 T01401088  RH  020%=      5-min Rain = 0
KAM1 122022Z 23005KT 14/M09 A3027 RMK A01 T01411089  RH  019%=      5-min Rain = 0
KAM1 122023Z 23006KT 14/M09 A3027 RMK A01 T01411090  RH  019%=      5-min Rain = 0
KAM1 122024Z 22004KT 14/M09 A3027 RMK A01 T01421088  RH  020%=      5-min Rain = 0
KAM1 122025Z 19003KT 14/M09 A3027 RMK A01 T01441087  RH  019%=      5-min Rain = 0
KAM1 122026Z 18009KT 15/M09 A3027 RMK A01 T01461088  RH  019%=      5-min Rain = 0
KAM1 122027Z 20010KT 15/M09 A3027 RMK A01 T01481086  RH  019%=      5-min Rain = 0
KAM1 122028Z 23008KT 15/M09 A3026 RMK A01 T01481089  RH  019%=      5-min Rain = 0
KAM1 122029Z 21008KT 15/M09 A3027 RMK A01 T01471088  RH  019%=      5-min Rain = 0
KAM1 122030Z 20005KT 15/M09 A3027 RMK A01 T01451091  RH  019%=      5-min Rain = 0
KAM1 122031Z 23005G11KT 14/M09 A3026 RMK A01 T01411092  RH  019%=      5-min Rain = 0
KAM1 122032Z 22008KT 14/M09 A3026 RMK A01 T01431089  RH  019%=      5-min Rain = 0
KAM1 122033Z 23008KT 14/M09 A3026 RMK A01 T01411092  RH  019%=      5-min Rain = 0
KAM1 122034Z 24008KT 14/M09 A3026 RMK A01 T01401091  RH  019%=      5-min Rain = 0
KAM1 122035Z 24005KT 14/M09 A3026 RMK A01 T01401090  RH  019%=      5-min Rain = 0
KAM1 122036Z 23009KT 14/M09 A3026 RMK A01 T01411089  RH  019%=      5-min Rain = 0
KAM1 122037Z 25010KT 14/M09 A3026 RMK A01 T01421088  RH  019%=      5-min Rain = 0
KAM1 122038Z 25008G13KT 14/M09 A3026 RMK A01 T01431088  RH  019%=      5-min Rain = 0
KAM1 122039Z 25004KT 14/M09 A3026 RMK A01 T01421089  RH  019%=      5-min Rain = 0
KAM1 122040Z 27005KT 14/M09 A3026 RMK A01 T01411090  RH  019%=      5-min Rain = 0
KAM1 122041Z 25005KT 14/M09 A3026 RMK A01 T01401090  RH  019%=      5-min Rain = 0
KAM1 122042Z 21011KT 14/M09 A3026 RMK A01 T01421091  RH  019%=      5-min Rain = 0
KAM1 122043Z 21009KT 14/M10 A3026 RMK A01 T01441095  RH  018%=      5-min Rain = 0
KAM1 122044Z 20009KT 14/M10 A3026 RMK A01 T01441097  RH  018%=      5-min Rain = 0
KAM1 122045Z 22011KT 15/M09 A3026 RMK A01 T01461094  RH  018%=      5-min Rain = 0
KAM1 122046Z 20007KT 15/M10 A3026 RMK A01 T01461096  RH  018%=      5-min Rain = 0
KAM1 122047Z 23008KT 14/M10 A3025 RMK A01 T01431097  RH  018%=      5-min Rain = 0
KAM1 122048Z 24011KT 14/M10 A3025 RMK A01 T01431096  RH  018%=      5-min Rain = 0
KAM1 122049Z 23009KT 14/M10 A3025 RMK A01 T01441096  RH  018%=      5-min Rain = 0
KAM1 122050Z 23006KT 14/M10 A3025 RMK A01 T01431097  RH  018%=      5-min Rain = 0
KAM1 122051Z 24008KT 14/M09 A3025 RMK A01 T01441094  RH  018%=      5-min Rain = 0
KAM1 122052Z 21006KT 15/M10 A3025 RMK A01 T01451095  RH  018%=      5-min Rain = 0
KAM1 122053Z 20008KT 15/M09 A3025 RMK A01 T01451094  RH  018%=      5-min Rain = 0
KAM1 122054Z 20007KT 15/M09 A3025 RMK A01 T01451093  RH  018%=      5-min Rain = 0
KAM1 122055Z 18008KT 15/M09 A3025 RMK A01 T01461093  RH  018%=      5-min Rain = 0
KAM1 122056Z 17007KT 15/M09 A3025 RMK A01 T01471093  RH  018%=      5-min Rain = 0
KAM1 122057Z 15006KT 15/M09 A3025 RMK A01 T01471094  RH  018%=      5-min Rain = 0
KAM1 122058Z 13007KT 15/M10 A3025 RMK A01 T01451095  RH  018%=      5-min Rain = 0
KAM1 122059Z 13005KT 15/M09 A3024 RMK A01 T01451094  RH  018%=      5-min Rain = 0
KAM1 122100Z 16005KT 14/M09 A3024 RMK A01 T01441094  RH  018%=      5-min Rain = 0
KAM1 122101Z 17007KT 15/M09 A3024 RMK A01 T01451094  RH  018%=      5-min Rain = 0
KAM1 122102Z 18011KT 15/M09 A3024 RMK A01 T01481091  RH  018%=      5-min Rain = 0
KAM1 122103Z 18009KT 15/M09 A3024 RMK A01 T01511092  RH  018%=      5-min Rain = 0
KAM1 122104Z 17008KT 15/M10 A3024 RMK A01 T01511095  RH  017%=      5-min Rain = 0
KAM1 122105Z 18010KT 15/M10 A3024 RMK A01 T01471095  RH  018%=      5-min Rain = 0
KAM1 122106Z 18011KT 15/M09 A3024 RMK A01 T01471094  RH  018%=      5-min Rain = 0
KAM1 122107Z 18008KT 15/M09 A3024 RMK A01 T01451094  RH  018%=      5-min Rain = 0
KAM1 122108Z 20009KT 15/M09 A3024 RMK A01 T01471091  RH  018%=      5-min Rain = 0
KAM1 122109Z 20007KT 15/M09 A3024 RMK A01 T01481093  RH  018%=      5-min Rain = 0
KAM1 122110Z 16007KT 15/M09 A3024 RMK A01 T01471093  RH  018%=      5-min Rain = 0
KAM1 122111Z 15009G15KT 15/M09 A3024 RMK A01 T01481092  RH  018%=      5-min Rain = 0
KAM1 122112Z 13007KT 15/M09 A3024 RMK A01 T01481093  RH  018%=      5-min Rain = 0
KAM1 122113Z 08003KT 15/M10 A3024 RMK A01 T01451097  RH  018%=      5-min Rain = 0
KAM1 122114Z 11003KT 14/M10 A3024 RMK A01 T01421097  RH  018%=      5-min Rain = 0
KAM1 122115Z 14004KT 14/M10 A3024 RMK A01 T01411096  RH  018%=      5-min Rain = 0
KAM1 122116Z 20004KT 14/M09 A3024 RMK A01 T01441092  RH  019%=      5-min Rain = 0
KAM1 122117Z 18007KT 15/M09 A3024 RMK A01 T01481092  RH  018%=      5-min Rain = 0
KAM1 122118Z 18009G18KT 15/M09 A3024 RMK A01 T01481092  RH  018%=      5-min Rain = 0
KAM1 122119Z 22012KT 15/M09 A3023 RMK A01 T01481094  RH  018%=      5-min Rain = 0
KAM1 122120Z 22009KT 15/M10 A3024 RMK A01 T01471095  RH  018%=      5-min Rain = 0
KAM1 122121Z 23009KT 15/M09 A3023 RMK A01 T01471094  RH  018%=      5-min Rain = 0
KAM1 122122Z 23008KT 15/M10 A3023 RMK A01 T01461096  RH  018%=      5-min Rain = 0
KAM1 122123Z 22010KT 15/M10 A3023 RMK A01 T01451095  RH  018%=      5-min Rain = 0
KAM1 122124Z 20010KT 15/M09 A3023 RMK A01 T01461094  RH  018%=      5-min Rain = 0
KAM1 122125Z 21009KT 15/M10 A3023 RMK A01 T01471095  RH  018%=      5-min Rain = 0
KAM1 122126Z 18005KT 15/M10 A3023 RMK A01 T01471095  RH  018%=      5-min Rain = 0
KAM1 122127Z 21005KT 15/M10 A3023 RMK A01 T01451097  RH  018%=      5-min Rain = 0
KAM1 122128Z 22004KT 15/M09 A3023 RMK A01 T01461094  RH  018%=      5-min Rain = 0
KAM1 122129Z 23004KT 15/M10 A3023 RMK A01 T01481095  RH  018%=      5-min Rain = 0
KAM1 122130Z 22004KT 15/M10 A3023 RMK A01 T01471095  RH  018%=      5-min Rain = 0
KAM1 122131Z 17004KT 15/M10 A3023 RMK A01 T01471096  RH  018%=      5-min Rain = 0
KAM1 122132Z 19005KT 15/M10 A3023 RMK A01 T01471096  RH  018%=      5-min Rain = 0
KAM1 122133Z 21009KT 15/M09 A3023 RMK A01 T01491093  RH  018%=      5-min Rain = 0
KAM1 122134Z 23011KT 15/M09 A3023 RMK A01 T01521092  RH  018%=      5-min Rain = 0
KAM1 122135Z 23009KT 15/M10 A3023 RMK A01 T01501095  RH  018%=      5-min Rain = 0
KAM1 122136Z 26009KT 15/M10 A3023 RMK A01 T01481095  RH  018%=      5-min Rain = 0
KAM1 122137Z 25007KT 15/M10 A3023 RMK A01 T01461096  RH  018%=      5-min Rain = 0
KAM1 122138Z 23006KT 15/M10 A3023 RMK A01 T01461095  RH  018%=      5-min Rain = 0
KAM1 122139Z 23004KT 15/M10 A3022 RMK A01 T01461095  RH  018%=      5-min Rain = 0
KAM1 122140Z 22007KT 15/M09 A3022 RMK A01 T01461094  RH  018%=      5-min Rain = 0
KAM1 122141Z 21005KT 15/M09 A3022 RMK A01 T01471094  RH  018%=      5-min Rain = 0
KAM1 122142Z 18005KT 15/M10 A3022 RMK A01 T01461095  RH  018%=      5-min Rain = 0
KAM1 122143Z 16004KT 15/M10 A3022 RMK A01 T01461095  RH  018%=      5-min Rain = 0
KAM1 122144Z 13005KT 15/M09 A3022 RMK A01 T01481092  RH  018%=      5-min Rain = 0
KAM1 122145Z 17005KT 15/M09 A3022 RMK A01 T01491093  RH  018%=      5-min Rain = 0
KAM1 122146Z 19008KT 15/M09 A3022 RMK A01 T01491094  RH  018%=      5-min Rain = 0
KAM1 122147Z 19006KT 15/M09 A3022 RMK A01 T01481094  RH  018%=      5-min Rain = 0
KAM1 122148Z 20007G13KT 15/M09 A3022 RMK A01 T01471092  RH  018%=      5-min Rain = 0
KAM1 122149Z 19011KT 15/M09 A3022 RMK A01 T01491092  RH  018%=      5-min Rain = 0
KAM1 122150Z 21010KT 15/M09 A3022 RMK A01 T01491093  RH  018%=      5-min Rain = 0
KAM1 122151Z 20009KT 15/M09 A3022 RMK A01 T01501092  RH  018%=      5-min Rain = 0
KAM1 122152Z 21007KT 15/M09 A3022 RMK A01 T01491094  RH  018%=      5-min Rain = 0
KAM1 122153Z 21006KT 15/M09 A3022 RMK A01 T01481093  RH  018%=      5-min Rain = 0
KAM1 122154Z 21002KT 15/M09 A3021 RMK A01 T01481094  RH  018%=      5-min Rain = 0
KAM1 122155Z 20001KT 15/M09 A3021 RMK A01 T01481092  RH  018%=      5-min Rain = 0
KAM1 122156Z 22005KT 15/M09 A3021 RMK A01 T01521090  RH  018%=      5-min Rain = 0
KAM1 122157Z 23009KT 15/M09 A3021 RMK A01 T01531094  RH  017%=      5-min Rain = 0
KAM1 122158Z 24006KT 15/M10 A3021 RMK A01 T01511097  RH  017%=      5-min Rain = 0
KAM1 122159Z 22009KT 15/M10 A3021 RMK A01 T01481098  RH  017%=      5-min Rain = 0
KAM1 122200Z 23008KT 15/M10 A3021 RMK A01 T01501096  RH  017%=      5-min Rain = 0
KAM1 122201Z 21007G12KT 15/M10 A3021 RMK A01 T01521095  RH  017%=      5-min Rain = 0
KAM1 122202Z 19009KT 15/M09 A3021 RMK A01 T01541094  RH  017%=      5-min Rain = 0
KAM1 122203Z 20008KT 16/M09 A3021 RMK A01 T01561093  RH  017%=      5-min Rain = 0
KAM1 122204Z 19005KT 15/M10 A3021 RMK A01 T01531096  RH  017%=      5-min Rain = 0
KAM1 122205Z 17006KT 15/M09 A3021 RMK A01 T01521094  RH  017%=      5-min Rain = 0
KAM1 122206Z 19006KT 15/M10 A3021 RMK A01 T01521095  RH  017%=      5-min Rain = 0
KAM1 122207Z 17008G17KT 15/M10 A3021 RMK A01 T01511095  RH  017%=      5-min Rain = 0
KAM1 122208Z 21009KT 15/M09 A3021 RMK A01 T01531093  RH  017%=      5-min Rain = 0
KAM1 122209Z 21010KT 16/M09 A3021 RMK A01 T01551093  RH  017%=      5-min Rain = 0
KAM1 122210Z 20009KT 15/M09 A3021 RMK A01 T01531094  RH  017%=      5-min Rain = 0
KAM1 122211Z 20010KT 15/M10 A3021 RMK A01 T01521095  RH  017%=      5-min Rain = 0
KAM1 122212Z 20011KT 15/M09 A3021 RMK A01 T01521094  RH  017%=      5-min Rain = 0
KAM1 122213Z 20008KT 15/M10 A3021 RMK A01 T01511095  RH  017%=      5-min Rain = 0
KAM1 122214Z 20008KT 15/M10 A3021 RMK A01 T01501095  RH  018%=      5-min Rain = 0
KAM1 122215Z 20009KT 15/M09 A3021 RMK A01 T01511093  RH  018%=      5-min Rain = 0
KAM1 122216Z 21009KT 15/M10 A3021 RMK A01 T01521095  RH  017%=      5-min Rain = 0
KAM1 122217Z 22010KT 15/M10 A302 RMK A01 T01511097  RH  017%=      5-min Rain = 0
KAM1 122218Z 21010KT 15/M10 A302 RMK A01 T01511096  RH  017%=      5-min Rain = 0
KAM1 122219Z 22007KT 15/M10 A302 RMK A01 T01511096  RH  017%=      5-min Rain = 0
KAM1 122220Z 19006KT 15/M09 A302 RMK A01 T01511094  RH  017%=      5-min Rain = 0
KAM1 122221Z 19007KT 15/M09 A302 RMK A01 T01521094  RH  017%=      5-min Rain = 0
KAM1 122222Z 19006KT 15/M10 A302 RMK A01 T01501097  RH  017%=      5-min Rain = 0
KAM1 122223Z 18007KT 15/M10 A302 RMK A01 T01491096  RH  018%=      5-min Rain = 0
KAM1 122224Z 20008KT 15/M09 A302 RMK A01 T01501093  RH  018%=      5-min Rain = 0
KAM1 122225Z 19007KT 15/M09 A302 RMK A01 T01511093  RH  018%=      5-min Rain = 0
KAM1 122226Z 19006KT 15/M09 A302 RMK A01 T01511093  RH  018%=      5-min Rain = 0
KAM1 122227Z 18005KT 15/M09 A302 RMK A01 T01511094  RH  018%=      5-min Rain = 0
KAM1 122228Z 17008KT 15/M09 A302 RMK A01 T01511094  RH  018%=      5-min Rain = 0
KAM1 122229Z 18010KT 15/M10 A302 RMK A01 T01501095  RH  018%=      5-min Rain = 0
KAM1 122230Z 19008KT 15/M10 A302 RMK A01 T01491095  RH  018%=      5-min Rain = 0
KAM1 122231Z 19007KT 15/M09 A3019 RMK A01 T01491094  RH  018%=      5-min Rain = 0
KAM1 122232Z 16010KT 15/M09 A3019 RMK A01 T01501093  RH  018%=      5-min Rain = 0
KAM1 122233Z 17013KT 15/M09 A3019 RMK A01 T01521093  RH  018%=      5-min Rain = 0
KAM1 122234Z 20010KT 15/M09 A302 RMK A01 T01531093  RH  018%=      5-min Rain = 0
KAM1 122235Z 21007KT 15/M09 A302 RMK A01 T01531094  RH  017%=      5-min Rain = 0
KAM1 122236Z 20009KT 15/M10 A302 RMK A01 T01501095  RH  017%=      5-min Rain = 0
KAM1 122237Z 17007KT 15/M09 A302 RMK A01 T01491094  RH  018%=      5-min Rain = 0
KAM1 122238Z 18007KT 15/M09 A302 RMK A01 T01501094  RH  018%=      5-min Rain = 0
KAM1 122239Z 19008KT 15/M09 A3019 RMK A01 T01491094  RH  018%=      5-min Rain = 0
KAM1 122240Z 22006KT 15/M10 A3019 RMK A01 T01491095  RH  018%=      5-min Rain = 0
KAM1 122241Z 19006KT 15/M10 A3019 RMK A01 T01491096  RH  018%=      5-min Rain = 0
KAM1 122242Z 17011KT 15/M10 A3019 RMK A01 T01471095  RH  018%=      5-min Rain = 0
KAM1 122243Z 18010KT 15/M09 A3019 RMK A01 T01481094  RH  018%=      5-min Rain = 0
KAM1 122244Z 18009KT 15/M09 A3019 RMK A01 T01481094  RH  018%=      5-min Rain = 0
KAM1 122245Z 17005KT 15/M09 A3019 RMK A01 T01481094  RH  018%=      5-min Rain = 0
KAM1 122246Z 18008KT 15/M09 A3019 RMK A01 T01481094  RH  018%=      5-min Rain = 0
KAM1 122247Z 17009KT 15/M09 A3019 RMK A01 T01491094  RH  018%=      5-min Rain = 0
KAM1 122248Z 17010KT 15/M09 A3019 RMK A01 T01501094  RH  018%=      5-min Rain = 0
KAM1 122249Z 17007KT 15/M10 A3019 RMK A01 T01481095  RH  018%=      5-min Rain = 0
KAM1 122250Z 17010G15KT 15/M09 A3019 RMK A01 T01481094  RH  018%=      5-min Rain = 0
KAM1 122251Z 21009G15KT 15/M09 A3019 RMK A01 T01491094  RH  018%=      5-min Rain = 0
KAM1 122252Z 22007KT 15/M10 A3019 RMK A01 T01501095  RH  018%=      5-min Rain = 0
KAM1 122253Z 20009KT 15/M09 A3019 RMK A01 T01501094  RH  018%=      5-min Rain = 0
KAM1 122254Z 20011KT 15/M10 A3019 RMK A01 T01501095  RH  017%=      5-min Rain = 0
KAM1 122255Z 22010KT 15/M10 A3019 RMK A01 T01501096  RH  017%=      5-min Rain = 0
KAM1 122256Z 23009KT 15/M10 A3019 RMK A01 T01491096  RH  017%=      5-min Rain = 0
KAM1 122257Z 23006KT 15/M10 A3019 RMK A01 T01491096  RH  017%=      5-min Rain = 0
KAM1 122258Z 22007KT 15/M10 A3019 RMK A01 T01491095  RH  018%=      5-min Rain = 0
KAM1 122259Z 21007KT 15/M10 A3019 RMK A01 T01501096  RH  017%=      5-min Rain = 0
KAM1 122300Z 22006KT 15/M10 A3019 RMK A01 T01481096  RH  018%=      5-min Rain = 0
KAM1 122301Z 20005KT 15/M10 A3019 RMK A01 T01471095  RH  018%=      5-min Rain = 0
KAM1 122302Z 19006KT 15/M10 A3019 RMK A01 T01481095  RH  018%=      5-min Rain = 0
KAM1 122303Z 19006KT 15/M10 A3019 RMK A01 T01481095  RH  018%=      5-min Rain = 0
KAM1 122304Z 19007KT 15/M10 A3019 RMK A01 T01481097  RH  018%=      5-min Rain = 0
KAM1 122305Z 21007KT 15/M10 A3019 RMK A01 T01481096  RH  018%=      5-min Rain = 0
KAM1 122306Z 21006G11KT 15/M10 A3019 RMK A01 T01481096  RH  018%=      5-min Rain = 0
KAM1 122307Z 18008KT 15/M10 A3019 RMK A01 T01471097  RH  018%=      5-min Rain = 0
KAM1 122308Z 20008KT 15/M10 A3019 RMK A01 T01461096  RH  018%=      5-min Rain = 0
KAM1 122309Z 18010KT 15/M10 A3019 RMK A01 T01461095  RH  018%=      5-min Rain = 0
KAM1 122310Z 18007G12KT 15/M10 A3019 RMK A01 T01471095  RH  018%=      5-min Rain = 0
KAM1 122311Z 18006KT 15/M09 A3019 RMK A01 T01481094  RH  018%=      5-min Rain = 0
KAM1 122312Z 17004KT 15/M10 A3019 RMK A01 T01481095  RH  018%=      5-min Rain = 0
KAM1 122313Z 15007KT 15/M10 A3019 RMK A01 T01471096  RH  018%=      5-min Rain = 0
KAM1 122314Z 15006KT 15/M10 A3019 RMK A01 T01461095  RH  018%=      5-min Rain = 0
KAM1 122315Z 15008KT 15/M09 A3018 RMK A01 T01471094  RH  018%=      5-min Rain = 0
KAM1 122316Z 16012KT 15/M09 A3018 RMK A01 T01481094  RH  018%=      5-min Rain = 0
KAM1 122317Z 17011KT 15/M09 A3018 RMK A01 T01481094  RH  018%=      5-min Rain = 0
KAM1 122318Z 19011KT 15/M09 A3018 RMK A01 T01481094  RH  018%=      5-min Rain = 0
KAM1 122319Z 17011KT 15/M10 A3018 RMK A01 T01471095  RH  018%=      5-min Rain = 0
KAM1 122320Z 16009KT 15/M10 A3018 RMK A01 T01461095  RH  018%=      5-min Rain = 0
KAM1 122321Z 17010KT 15/M10 A3018 RMK A01 T01461095  RH  018%=      5-min Rain = 0
KAM1 122322Z 17008KT 15/M09 A3018 RMK A01 T01461094  RH  018%=      5-min Rain = 0
KAM1 122323Z 17010KT 15/M09 A3018 RMK A01 T01461094  RH  018%=      5-min Rain = 0
KAM1 122324Z 17010KT 15/M10 A3018 RMK A01 T01451095  RH  018%=      5-min Rain = 0
KAM1 122325Z 16007KT 15/M09 A3018 RMK A01 T01451094  RH  018%=      5-min Rain = 0
KAM1 122326Z 17012KT 15/M10 A3018 RMK A01 T01451095  RH  018%=      5-min Rain = 0
KAM1 122327Z 18011KT 15/M10 A3018 RMK A01 T01451095  RH  018%=      5-min Rain = 0
KAM1 122328Z 17009KT 14/M10 A3018 RMK A01 T01441095  RH  018%=      5-min Rain = 0
KAM1 122329Z 15008KT 14/M10 A3018 RMK A01 T01441096  RH  018%=      5-min Rain = 0
KAM1 122330Z 15008KT 14/M10 A3018 RMK A01 T01431096  RH  018%=      5-min Rain = 0
KAM1 122331Z 17006KT 14/M10 A3018 RMK A01 T01421096  RH  018%=      5-min Rain = 0
KAM1 122332Z 18010KT 14/M10 A3018 RMK A01 T01411096  RH  018%=      5-min Rain = 0
KAM1 122333Z 18009KT 14/M10 A3019 RMK A01 T01391096  RH  019%=      5-min Rain = 0
KAM1 122334Z 18008KT 14/M10 A3019 RMK A01 T01381096  RH  019%=      5-min Rain = 0
KAM1 122335Z 17009KT 14/M10 A3019 RMK A01 T01361095  RH  019%=      5-min Rain = 0
KAM1 122336Z 18010KT 14/M10 A3019 RMK A01 T01361095  RH  019%=      5-min Rain = 0
KAM1 122337Z 18009KT 14/M10 A3019 RMK A01 T01351095  RH  019%=      5-min Rain = 0
KAM1 122338Z 18009KT 13/M10 A3019 RMK A01 T01341095  RH  019%=      5-min Rain = 0
KAM1 122339Z 18009KT 13/M10 A3019 RMK A01 T01341095  RH  019%=      5-min Rain = 0
KAM1 122340Z 19007KT 13/M10 A3019 RMK A01 T01341095  RH  019%=      5-min Rain = 0
KAM1 122341Z 19008KT 13/M10 A3019 RMK A01 T01331095  RH  019%=      5-min Rain = 0
KAM1 122342Z 19007KT 13/M10 A3019 RMK A01 T01341095  RH  019%=      5-min Rain = 0
KAM1 122343Z 20008KT 14/M09 A3019 RMK A01 T01351094  RH  019%=      5-min Rain = 0
KAM1 122344Z 20008KT 14/M09 A3019 RMK A01 T01361094  RH  019%=      5-min Rain = 0
KAM1 122345Z 19008KT 14/M09 A3019 RMK A01 T01371094  RH  019%=      5-min Rain = 0
KAM1 122346Z 18009KT 14/M09 A3019 RMK A01 T01381093  RH  019%=      5-min Rain = 0
KAM1 122347Z 18007KT 14/M09 A3019 RMK A01 T01391093  RH  019%=      5-min Rain = 0
KAM1 122348Z 19008KT 14/M09 A3019 RMK A01 T01391093  RH  019%=      5-min Rain = 0
KAM1 122349Z 19008KT 14/M09 A3019 RMK A01 T01401093  RH  019%=      5-min Rain = 0
KAM1 122350Z 18008KT 14/M09 A3019 RMK A01 T01401093  RH  019%=      5-min Rain = 0
KAM1 122351Z 19008KT 14/M09 A3019 RMK A01 T01391094  RH  019%=      5-min Rain = 0
KAM1 122352Z 18006KT 14/M09 A3019 RMK A01 T01391094  RH  019%=      5-min Rain = 0
KAM1 122353Z 17007KT 14/M09 A3019 RMK A01 T01391094  RH  019%=      5-min Rain = 0
KAM1 122354Z 16007KT 14/M09 A3019 RMK A01 T01391094  RH  019%=      5-min Rain = 0
KAM1 122355Z 16008KT 14/M09 A3019 RMK A01 T01401094  RH  019%=      5-min Rain = 0
KAM1 122356Z 17008KT 14/M09 A3019 RMK A01 T01401093  RH  019%=      5-min Rain = 0
KAM1 122357Z 17009KT 14/M09 A3019 RMK A01 T01391094  RH  019%=      5-min Rain = 0
KAM1 122358Z 16010KT 14/M09 A3019 RMK A01 T01381094  RH  019%=      5-min Rain = 0
KAM1 122359Z 17009KT 14/M09 A3019 RMK A01 T01381094  RH  019%=      5-min Rain = 0
KAM1 130000Z 18008KT 14/M09 A3019 RMK A01 T01371094  RH  019%=      5-min Rain = 0
KAM1 130001Z 19007KT 14/M09 A3019 RMK A01 T01371094  RH  019%=      5-min Rain = 0
KAM1 130002Z 20007KT 14/M10 A3019 RMK A01 T01381095  RH  019%=      5-min Rain = 0
KAM1 130003Z 19006KT 14/M10 A3019 RMK A01 T01381095  RH  019%=      5-min Rain = 0
KAM1 130004Z 19007KT 14/M10 A3019 RMK A01 T01371096  RH  019%=      5-min Rain = 0
KAM1 130005Z 19007KT 14/M10 A3019 RMK A01 T01381095  RH  019%=      5-min Rain = 0
KAM1 130006Z 18007KT 14/M10 A3019 RMK A01 T01371095  RH  019%=      5-min Rain = 0
KAM1 130007Z 17006KT 14/M10 A3019 RMK A01 T01371095  RH  019%=      5-min Rain = 0
KAM1 130008Z 18009KT 14/M09 A3019 RMK A01 T01371094  RH  019%=      5-min Rain = 0
KAM1 130009Z 19008KT 14/M10 A3019 RMK A01 T01361095  RH  019%=      5-min Rain = 0
KAM1 130010Z 19009KT 14/M10 A3019 RMK A01 T01361096  RH  019%=      5-min Rain = 0
KAM1 130011Z 20008KT 14/M10 A3019 RMK A01 T01351095  RH  019%=      5-min Rain = 0
KAM1 130012Z 20005KT 14/M10 A3019 RMK A01 T01351095  RH  019%=      5-min Rain = 0
KAM1 130013Z 19007KT 14/M09 A3019 RMK A01 T01351094  RH  019%=      5-min Rain = 0
KAM1 130014Z 19010KT 13/M10 A3019 RMK A01 T01341095  RH  019%=      5-min Rain = 0
KAM1 130015Z 20007KT 13/M10 A3019 RMK A01 T01331096  RH  019%=      5-min Rain = 0
KAM1 130016Z 19007KT 13/M10 A3019 RMK A01 T01321095  RH  020%=      5-min Rain = 0
KAM1 130017Z 19009KT 13/M10 A3019 RMK A01 T01321095  RH  020%=      5-min Rain = 0
KAM1 130018Z 19009KT 13/M10 A3019 RMK A01 T01301096  RH  020%=      5-min Rain = 0
KAM1 130019Z 20008KT 13/M10 A3019 RMK A01 T01291096  RH  020%=      5-min Rain = 0
KAM1 130020Z 19007KT 13/M10 A3019 RMK A01 T01281096  RH  020%=      5-min Rain = 0
KAM1 130021Z 20008KT 13/M10 A3019 RMK A01 T01271096  RH  020%=      5-min Rain = 0
KAM1 130022Z 19008KT 13/M10 A3019 RMK A01 T01261096  RH  020%=      5-min Rain = 0
KAM1 130023Z 20008KT 13/M10 A3019 RMK A01 T01251096  RH  020%=      5-min Rain = 0
KAM1 130024Z 19008KT 12/M10 A3019 RMK A01 T01241096  RH  021%=      5-min Rain = 0
KAM1 130025Z 19008KT 12/M10 A3019 RMK A01 T01231096  RH  021%=      5-min Rain = 0
KAM1 130026Z 19008KT 12/M10 A3019 RMK A01 T01231096  RH  021%=      5-min Rain = 0
KAM1 130027Z 19006KT 12/M10 A3019 RMK A01 T01231096  RH  021%=      5-min Rain = 0
KAM1 130028Z 19007KT 12/M10 A3019 RMK A01 T01211097  RH  021%=      5-min Rain = 0
KAM1 130029Z 18007KT 12/M10 A3019 RMK A01 T01201097  RH  021%=      5-min Rain = 0
KAM1 130030Z 18008KT 12/M10 A3019 RMK A01 T01201097  RH  021%=      5-min Rain = 0
KAM1 130031Z 18008KT 12/M10 A3019 RMK A01 T01191097  RH  021%=      5-min Rain = 0
KAM1 130032Z 18008KT 12/M10 A3019 RMK A01 T01181096  RH  021%=      5-min Rain = 0
KAM1 130033Z 18008KT 12/M10 A3019 RMK A01 T01171097  RH  021%=      5-min Rain = 0
KAM1 130034Z 17007KT 12/M10 A3019 RMK A01 T01171096  RH  022%=      5-min Rain = 0
KAM1 130035Z 18007KT 12/M10 A3019 RMK A01 T01161096  RH  022%=      5-min Rain = 0
KAM1 130036Z 17007KT 12/M10 A3019 RMK A01 T01151096  RH  022%=      5-min Rain = 0
KAM1 130037Z 17007KT 12/M10 A3019 RMK A01 T01151096  RH  022%=      5-min Rain = 0
KAM1 130038Z 17007KT 11/M10 A3019 RMK A01 T01141096  RH  022%=      5-min Rain = 0
KAM1 130039Z 17007KT 11/M10 A3019 RMK A01 T01131096  RH  022%=      5-min Rain = 0
KAM1 130040Z 17007KT 11/M10 A3019 RMK A01 T01121096  RH  022%=      5-min Rain = 0
KAM1 130041Z 18007KT 11/M10 A3019 RMK A01 T01111096  RH  022%=      5-min Rain = 0
KAM1 130042Z 17007KT 11/M10 A3019 RMK A01 T01101097  RH  022%=      5-min Rain = 0
KAM1 130043Z 17007KT 11/M10 A3019 RMK A01 T01091097  RH  023%=      5-min Rain = 0
KAM1 130044Z 17007KT 11/M10 A3019 RMK A01 T01071097  RH  023%=      5-min Rain = 0
KAM1 130045Z 17007KT 11/M10 A3019 RMK A01 T01051098  RH  023%=      5-min Rain = 0
KAM1 130046Z 17007KT 10/M10 A3019 RMK A01 T01041098  RH  023%=      5-min Rain = 0
KAM1 130047Z 17007KT 10/M10 A3019 RMK A01 T01021098  RH  023%=      5-min Rain = 0
KAM1 130048Z 17007KT 10/M10 A3019 RMK A01 T01011098  RH  024%=      5-min Rain = 0
KAM1 130049Z 17007KT 10/M10 A3019 RMK A01 T00991098  RH  024%=      5-min Rain = 0
KAM1 130050Z 17007KT 10/M10 A3019 RMK A01 T00981099  RH  024%=      5-min Rain = 0
KAM1 130051Z 17007KT 10/M10 A3019 RMK A01 T00971099  RH  024%=      5-min Rain = 0
KAM1 130052Z 17007KT 10/M10 A3019 RMK A01 T00951099  RH  024%=      5-min Rain = 0
KAM1 130053Z 17007KT 09/M10 A3019 RMK A01 T00941100  RH  024%=      5-min Rain = 0
KAM1 130054Z 17007KT 09/M10 A3019 RMK A01 T00931100  RH  025%=      5-min Rain = 0
KAM1 130055Z 17007KT 09/M10 A3019 RMK A01 T00911100  RH  025%=      5-min Rain = 0
KAM1 130056Z 17007KT 09/M10 A3019 RMK A01 T00901100  RH  025%=      5-min Rain = 0
KAM1 130057Z 17007KT 09/M10 A3019 RMK A01 T00891100  RH  025%=      5-min Rain = 0
KAM1 130058Z 16007KT 09/M10 A3019 RMK A01 T00881100  RH  025%=      5-min Rain = 0
KAM1 130059Z 16007KT 09/M10 A3019 RMK A01 T00871100  RH  025%=      5-min Rain = 0
KAM1 130100Z 16007KT 09/M10 A3019 RMK A01 T00861100  RH  026%=      5-min Rain = 0
KAM1 130101Z 16007KT 09/M10 A3019 RMK A01 T00851100  RH  026%=      5-min Rain = 0
KAM1 130102Z 17007KT 08/M10 A3019 RMK A01 T00841101  RH  026%=      5-min Rain = 0
KAM1 130103Z 17007KT 08/M10 A302 RMK A01 T00831101  RH  026%=      5-min Rain = 0
KAM1 130104Z 17007KT 08/M10 A302 RMK A01 T00821101  RH  026%=      5-min Rain = 0
KAM1 130105Z 17007KT 08/M10 A302 RMK A01 T00811101  RH  026%=      5-min Rain = 0
KAM1 130106Z 17007KT 08/M10 A302 RMK A01 T00801101  RH  027%=      5-min Rain = 0
KAM1 130107Z 17007KT 08/M10 A302 RMK A01 T00791101  RH  027%=      5-min Rain = 0
KAM1 130108Z 16007KT 08/M10 A302 RMK A01 T00781102  RH  027%=      5-min Rain = 0
KAM1 130109Z 16007KT 08/M10 A302 RMK A01 T00771102  RH  027%=      5-min Rain = 0
KAM1 130110Z 16007KT 08/M10 A302 RMK A01 T00751102  RH  027%=      5-min Rain = 0
KAM1 130111Z 16007KT 07/M10 A302 RMK A01 T00741102  RH  027%=      5-min Rain = 0
KAM1 130112Z 17006KT 07/M10 A302 RMK A01 T00731102  RH  028%=      5-min Rain = 0
KAM1 130113Z 17007KT 07/M10 A302 RMK A01 T00721102  RH  028%=      5-min Rain = 0
KAM1 130114Z 17007KT 07/M10 A302 RMK A01 T00711102  RH  028%=      5-min Rain = 0
KAM1 130115Z 17007KT 07/M10 A302 RMK A01 T00711101  RH  028%=      5-min Rain = 0
KAM1 130116Z 17008KT 07/M10 A302 RMK A01 T00711101  RH  028%=      5-min Rain = 0
KAM1 130117Z 17008KT 07/M10 A302 RMK A01 T00721100  RH  028%=      5-min Rain = 0
KAM1 130118Z 17008KT 07/M10 A302 RMK A01 T00731100  RH  028%=      5-min Rain = 0
KAM1 130119Z 17007KT 07/M10 A302 RMK A01 T00731100  RH  028%=      5-min Rain = 0
KAM1 130120Z 17007KT 07/M10 A302 RMK A01 T00741100  RH  028%=      5-min Rain = 0
KAM1 130121Z 16007KT 07/M10 A302 RMK A01 T00741099  RH  028%=      5-min Rain = 0
KAM1 130122Z 16007KT 07/M10 A302 RMK A01 T00731100  RH  028%=      5-min Rain = 0
KAM1 130123Z 16007KT 07/M10 A302 RMK A01 T00721101  RH  028%=      5-min Rain = 0
KAM1 130124Z 16007KT 07/M10 A302 RMK A01 T00711102  RH  028%=      5-min Rain = 0
KAM1 130125Z 17007KT 07/M10 A302 RMK A01 T00691102  RH  028%=      5-min Rain = 0
KAM1 130126Z 16008KT 07/M10 A302 RMK A01 T00681102  RH  029%=      5-min Rain = 0
KAM1 130127Z 16008KT 07/M10 A302 RMK A01 T00661102  RH  029%=      5-min Rain = 0
KAM1 130128Z 17008KT 07/M10 A3021 RMK A01 T00651102  RH  029%=      5-min Rain = 0
KAM1 130129Z 17008KT 07/M10 A3021 RMK A01 T00661101  RH  029%=      5-min Rain = 0
KAM1 130130Z 17008KT 07/M10 A3021 RMK A01 T00661101  RH  029%=      5-min Rain = 0
KAM1 130131Z 17008KT 07/M10 A3021 RMK A01 T00651101  RH  029%=      5-min Rain = 0
KAM1 130132Z 17008KT 07/M10 A3021 RMK A01 T00651100  RH  030%=      5-min Rain = 0
KAM1 130133Z 17008KT 07/M10 A3021 RMK A01 T00651100  RH  030%=      5-min Rain = 0
KAM1 130134Z 17008KT 07/M10 A3021 RMK A01 T00651100  RH  030%=      5-min Rain = 0
KAM1 130135Z 17008KT 07/M10 A3021 RMK A01 T00661099  RH  030%=      5-min Rain = 0
KAM1 130136Z 17008KT 07/M10 A3021 RMK A01 T00671098  RH  030%=      5-min Rain = 0
KAM1 130137Z 17008KT 07/M10 A3021 RMK A01 T00681098  RH  030%=      5-min Rain = 0
KAM1 130138Z 17008KT 07/M10 A3021 RMK A01 T00681098  RH  029%=      5-min Rain = 0
KAM1 130139Z 17008KT 07/M10 A3021 RMK A01 T00691098  RH  029%=      5-min Rain = 0
KAM1 130140Z 17008KT 07/M10 A3021 RMK A01 T00691098  RH  029%=      5-min Rain = 0
KAM1 130141Z 17007KT 07/M10 A3021 RMK A01 T00691098  RH  029%=      5-min Rain = 0
KAM1 130142Z 17007KT 07/M10 A3021 RMK A01 T00681099  RH  029%=      5-min Rain = 0
KAM1 130143Z 17007KT 07/M10 A3021 RMK A01 T00671099  RH  029%=      5-min Rain = 0
KAM1 130144Z 17007KT 07/M10 A3021 RMK A01 T00661100  RH  029%=      5-min Rain = 0
KAM1 130145Z 17007KT 07/M10 A3021 RMK A01 T00661100  RH  030%=      5-min Rain = 0
KAM1 130146Z 17007KT 07/M10 A3021 RMK A01 T00651100  RH  030%=      5-min Rain = 0
KAM1 130147Z 17008KT 07/M10 A3021 RMK A01 T00651099  RH  030%=      5-min Rain = 0
KAM1 130148Z 17008KT 07/M10 A3021 RMK A01 T00651099  RH  030%=      5-min Rain = 0
KAM1 130149Z 17008KT 07/M10 A3021 RMK A01 T00651099  RH  030%=      5-min Rain = 0
KAM1 130150Z 17008KT 07/M10 A3021 RMK A01 T00651099  RH  030%=      5-min Rain = 0
KAM1 130151Z 17008KT 07/M10 A3021 RMK A01 T00651099  RH  030%=      5-min Rain = 0
KAM1 130152Z 17008KT 07/M10 A3021 RMK A01 T00651099  RH  030%=      5-min Rain = 0
KAM1 130153Z 17008KT 07/M10 A3021 RMK A01 T00661099  RH  030%=      5-min Rain = 0
KAM1 130154Z 17008KT 07/M10 A3021 RMK A01 T00661098  RH  030%=      5-min Rain = 0
KAM1 130155Z 17008KT 07/M10 A3021 RMK A01 T00661098  RH  030%=      5-min Rain = 0
KAM1 130156Z 17008KT 07/M10 A3021 RMK A01 T00671098  RH  030%=      5-min Rain = 0
KAM1 130157Z 17008KT 07/M10 A3021 RMK A01 T00671097  RH  030%=      5-min Rain = 0
KAM1 130158Z 17008KT 07/M10 A3021 RMK A01 T00671097  RH  030%=      5-min Rain = 0
KAM1 130159Z 17008KT 07/M10 A3021 RMK A01 T00671097  RH  030%=      5-min Rain = 0
KAM1 130200Z 17008KT 07/M10 A3021 RMK A01 T00671097  RH  030%=      5-min Rain = 0
KAM1 130201Z 17008KT 07/M10 A3021 RMK A01 T00681096  RH  030%=      5-min Rain = 0
KAM1 130202Z 17008KT 07/M10 A3021 RMK A01 T00681096  RH  030%=      5-min Rain = 0
KAM1 130203Z 17008KT 07/M10 A3021 RMK A01 T00681096  RH  030%=      5-min Rain = 0
KAM1 130204Z 17008KT 07/M10 A3021 RMK A01 T00681096  RH  030%=      5-min Rain = 0
KAM1 130205Z 17008KT 07/M10 A3021 RMK A01 T00681095  RH  030%=      5-min Rain = 0
KAM1 130206Z 17008KT 07/M10 A3021 RMK A01 T00681095  RH  030%=      5-min Rain = 0
KAM1 130207Z 16008KT 07/M10 A3021 RMK A01 T00671095  RH  030%=      5-min Rain = 0
KAM1 130208Z 16007KT 07/M10 A3021 RMK A01 T00681095  RH  030%=      5-min Rain = 0
KAM1 130209Z 16007KT 07/M10 A3021 RMK A01 T00681095  RH  030%=      5-min Rain = 0
KAM1 130210Z 16008KT 07/M09 A3021 RMK A01 T00681094  RH  030%=      5-min Rain = 0
KAM1 130211Z 16007KT 07/M09 A3021 RMK A01 T00691093  RH  030%=      5-min Rain = 0
KAM1 130212Z 16007KT 07/M09 A3021 RMK A01 T00701093  RH  030%=      5-min Rain = 0
KAM1 130213Z 16007KT 07/M09 A3021 RMK A01 T00701093  RH  030%=      5-min Rain = 0
KAM1 130214Z 16007KT 07/M09 A3021 RMK A01 T00701093  RH  030%=      5-min Rain = 0
KAM1 130215Z 16007KT 07/M09 A3021 RMK A01 T00701093  RH  030%=      5-min Rain = 0
KAM1 130216Z 16007KT 07/M09 A3021 RMK A01 T00691093  RH  030%=      5-min Rain = 0
KAM1 130217Z 15007KT 07/M09 A3021 RMK A01 T00681093  RH  031%=      5-min Rain = 0
KAM1 130218Z 15007KT 07/M09 A3021 RMK A01 T00681093  RH  031%=      5-min Rain = 0
KAM1 130219Z 14007KT 07/M09 A3021 RMK A01 T00671092  RH  031%=      5-min Rain = 0
KAM1 130220Z 14006KT 07/M09 A3021 RMK A01 T00661092  RH  031%=      5-min Rain = 0
KAM1 130221Z 14007KT 07/M09 A3021 RMK A01 T00661090  RH  032%=      5-min Rain = 0
KAM1 130222Z 12008KT 07/M09 A3021 RMK A01 T00651090  RH  032%=      5-min Rain = 0
KAM1 130223Z 13009KT 07/M09 A3022 RMK A01 T00651090  RH  032%=      5-min Rain = 0
KAM1 130224Z 14008KT 06/M09 A3022 RMK A01 T00631093  RH  032%=      5-min Rain = 0
KAM1 130225Z 14008KT 06/M09 A3022 RMK A01 T00621093  RH  032%=      5-min Rain = 0
KAM1 130226Z 14008KT 06/M09 A3022 RMK A01 T00631092  RH  032%=      5-min Rain = 0
KAM1 130227Z 14008KT 06/M09 A3022 RMK A01 T00641091  RH  032%=      5-min Rain = 0
KAM1 130228Z 14008KT 07/M09 A3022 RMK A01 T00651091  RH  032%=      5-min Rain = 0
KAM1 130229Z 14008KT 07/M09 A3022 RMK A01 T00661090  RH  032%=      5-min Rain = 0
KAM1 130230Z 14008KT 07/M09 A3022 RMK A01 T00661090  RH  032%=      5-min Rain = 0
KAM1 130231Z 13007KT 07/M09 A3022 RMK A01 T00671089  RH  032%=      5-min Rain = 0
KAM1 130232Z 14008KT 07/M09 A3022 RMK A01 T00661087  RH  032%=      5-min Rain = 0
KAM1 130233Z 14008KT 07/M09 A3022 RMK A01 T00671086  RH  033%=      5-min Rain = 0
KAM1 130234Z 14007KT 07/M09 A3022 RMK A01 T00671086  RH  033%=      5-min Rain = 0
KAM1 130235Z 14006KT 07/M09 A3022 RMK A01 T00671086  RH  033%=      5-min Rain = 0
KAM1 130236Z 14007KT 07/M09 A3022 RMK A01 T00671086  RH  032%=      5-min Rain = 0
KAM1 130237Z 14006KT 07/M09 A3022 RMK A01 T00671087  RH  033%=      5-min Rain = 0
KAM1 130238Z 14006KT 07/M09 A3022 RMK A01 T00661087  RH  033%=      5-min Rain = 0
KAM1 130239Z 14007KT 07/M09 A3022 RMK A01 T00651086  RH  033%=      5-min Rain = 0
KAM1 130240Z 14008KT 06/M09 A3022 RMK A01 T00641085  RH  034%=      5-min Rain = 0
KAM1 130241Z 13008KT 06/M08 A3022 RMK A01 T00631083  RH  034%=      5-min Rain = 0
KAM1 130242Z 13008KT 06/M08 A3022 RMK A01 T00641080  RH  035%=      5-min Rain = 0
KAM1 130243Z 14009KT 07/M08 A3022 RMK A01 T00651077  RH  035%=      5-min Rain = 0
KAM1 130244Z 14009KT 07/M08 A3022 RMK A01 T00661075  RH  036%=      5-min Rain = 0
KAM1 130245Z 13008KT 07/M07 A3022 RMK A01 T00671074  RH  036%=      5-min Rain = 0
KAM1 130246Z 14009KT 07/M07 A3022 RMK A01 T00681072  RH  036%=      5-min Rain = 0
KAM1 130247Z 14009KT 07/M07 A3022 RMK A01 T00681071  RH  036%=      5-min Rain = 0
KAM1 130248Z 14008KT 07/M07 A3022 RMK A01 T00681070  RH  036%=      5-min Rain = 0
KAM1 130249Z 14009KT 07/M07 A3022 RMK A01 T00681071  RH  036%=      5-min Rain = 0
KAM1 130250Z 14009KT 07/M07 A3022 RMK A01 T00681070  RH  037%=      5-min Rain = 0
KAM1 130251Z 13009KT 07/M07 A3022 RMK A01 T00681070  RH  037%=      5-min Rain = 0
KAM1 130252Z 14009KT 07/M07 A3022 RMK A01 T00681069  RH  037%=      5-min Rain = 0
KAM1 130253Z 14009KT 07/M07 A3022 RMK A01 T00671068  RH  037%=      5-min Rain = 0
KAM1 130254Z 14009KT 07/M07 A3022 RMK A01 T00681066  RH  038%=      5-min Rain = 0
KAM1 130255Z 14009KT 07/M07 A3022 RMK A01 T00691065  RH  038%=      5-min Rain = 0
KAM1 130256Z 14008KT 07/M07 A3022 RMK A01 T00701065  RH  038%=      5-min Rain = 0
KAM1 130257Z 13009KT 07/M06 A3022 RMK A01 T00711064  RH  037%=      5-min Rain = 0
KAM1 130258Z 13009KT 07/M06 A3022 RMK A01 T00711064  RH  037%=      5-min Rain = 0
KAM1 130259Z 13012KT 07/M06 A3022 RMK A01 T00721063  RH  037%=      5-min Rain = 0
KAM1 130300Z 13010KT 07/M06 A3022 RMK A01 T00741063  RH  037%=      5-min Rain = 0
KAM1 130301Z 13011KT 08/M06 A3022 RMK A01 T00751063  RH  037%=      5-min Rain = 0
KAM1 130302Z 14010KT 08/M06 A3022 RMK A01 T00751063  RH  037%=      5-min Rain = 0
KAM1 130303Z 14009KT 08/M06 A3022 RMK A01 T00761063  RH  037%=      5-min Rain = 0
KAM1 130304Z 14010KT 08/M06 A3022 RMK A01 T00751063  RH  037%=      5-min Rain = 0
KAM1 130305Z 14011KT 08/M06 A3022 RMK A01 T00751063  RH  037%=      5-min Rain = 0
KAM1 130306Z 14011KT 08/M06 A3022 RMK A01 T00751063  RH  037%=      5-min Rain = 0
KAM1 130307Z 14011KT 08/M06 A3022 RMK A01 T00761062  RH  037%=      5-min Rain = 0
KAM1 130308Z 14010KT 08/M06 A3022 RMK A01 T00761063  RH  037%=      5-min Rain = 0
KAM1 130309Z 14009KT 08/M06 A3022 RMK A01 T00761063  RH  037%=      5-min Rain = 0
KAM1 130310Z 14010KT 08/M06 A3022 RMK A01 T00751063  RH  037%=      5-min Rain = 0
KAM1 130311Z 14011KT 08/M06 A3022 RMK A01 T00751063  RH  037%=      5-min Rain = 0
KAM1 130312Z 14011KT 08/M06 A3022 RMK A01 T00751063  RH  037%=      5-min Rain = 0
KAM1 130313Z 14009KT 08/M06 A3022 RMK A01 T00751062  RH  037%=      5-min Rain = 0
KAM1 130314Z 14010KT 08/M06 A3022 RMK A01 T00751062  RH  037%=      5-min Rain = 0
KAM1 130315Z 14010KT 08/M06 A3022 RMK A01 T00751062  RH  037%=      5-min Rain = 0
KAM1 130316Z 14011KT 07/M06 A3022 RMK A01 T00741063  RH  037%=      5-min Rain = 0
KAM1 130317Z 14012KT 07/M06 A3022 RMK A01 T00741062  RH  037%=      5-min Rain = 0
KAM1 130318Z 14011KT 07/M06 A3022 RMK A01 T00741062  RH  037%=      5-min Rain = 0
KAM1 130319Z 14009KT 08/M06 A3022 RMK A01 T00751062  RH  037%=      5-min Rain = 0
KAM1 130320Z 14010KT 07/M06 A3022 RMK A01 T00741063  RH  037%=      5-min Rain = 0
KAM1 130321Z 14009KT 07/M06 A3022 RMK A01 T00731064  RH  037%=      5-min Rain = 0
KAM1 130322Z 14009KT 07/M06 A3022 RMK A01 T00721064  RH  037%=      5-min Rain = 0
KAM1 130323Z 14009KT 07/M06 A3022 RMK A01 T00711064  RH  038%=      5-min Rain = 0
KAM1 130324Z 14007KT 07/M06 A3022 RMK A01 T00701064  RH  038%=      5-min Rain = 0
KAM1 130325Z 14008KT 07/M06 A3022 RMK A01 T00691064  RH  038%=      5-min Rain = 0
KAM1 130326Z 14008KT 07/M07 A3022 RMK A01 T00681065  RH  038%=      5-min Rain = 0
KAM1 130327Z 14009KT 07/M06 A3022 RMK A01 T00671064  RH  039%=      5-min Rain = 0
KAM1 130328Z 14009KT 07/M06 A3022 RMK A01 T00671064  RH  039%=      5-min Rain = 0
KAM1 130329Z 14010KT 07/M06 A3022 RMK A01 T00671064  RH  039%=      5-min Rain = 0
KAM1 130330Z 14010KT 07/M06 A3022 RMK A01 T00681063  RH  039%=      5-min Rain = 0
KAM1 130331Z 14010KT 07/M06 A3022 RMK A01 T00691062  RH  039%=      5-min Rain = 0
KAM1 130332Z 14009KT 07/M06 A3022 RMK A01 T00691063  RH  038%=      5-min Rain = 0
KAM1 130333Z 14010KT 07/M06 A3022 RMK A01 T00691063  RH  038%=      5-min Rain = 0
KAM1 130334Z 14008KT 07/M06 A3022 RMK A01 T00691063  RH  038%=      5-min Rain = 0
KAM1 130335Z 14008KT 07/M06 A3022 RMK A01 T00681064  RH  038%=      5-min Rain = 0
KAM1 130336Z 14008KT 07/M06 A3022 RMK A01 T00671064  RH  039%=      5-min Rain = 0
KAM1 130337Z 14008KT 07/M06 A3022 RMK A01 T00671064  RH  039%=      5-min Rain = 0
KAM1 130338Z 14009KT 07/M06 A3022 RMK A01 T00661064  RH  039%=      5-min Rain = 0
KAM1 130339Z 14009KT 07/M06 A3022 RMK A01 T00661064  RH  039%=      5-min Rain = 0
KAM1 130340Z 14009KT 07/M06 A3022 RMK A01 T00651064  RH  039%=      5-min Rain = 0
KAM1 130341Z 14008KT 07/M06 A3022 RMK A01 T00661064  RH  039%=      5-min Rain = 0
KAM1 130342Z 14008KT 07/M06 A3022 RMK A01 T00661064  RH  039%=      5-min Rain = 0
KAM1 130343Z 14009KT 07/M06 A3022 RMK A01 T00651064  RH  039%=      5-min Rain = 0
KAM1 130344Z 14009KT 07/M06 A3022 RMK A01 T00651064  RH  039%=      5-min Rain = 0
KAM1 130345Z 14009KT 07/M06 A3022 RMK A01 T00651063  RH  039%=      5-min Rain = 0
KAM1 130346Z 14008KT 07/M06 A3022 RMK A01 T00651063  RH  039%=      5-min Rain = 0
KAM1 130347Z 14009KT 06/M06 A3022 RMK A01 T00641064  RH  039%=      5-min Rain = 0
KAM1 130348Z 14008KT 06/M06 A3022 RMK A01 T00641064  RH  040%=      5-min Rain = 0
KAM1 130349Z 14009KT 06/M06 A3022 RMK A01 T00631064  RH  040%=      5-min Rain = 0
KAM1 130350Z 13009KT 06/M06 A3022 RMK A01 T00631063  RH  040%=      5-min Rain = 0
KAM1 130351Z 14008KT 06/M06 A3022 RMK A01 T00631064  RH  040%=      5-min Rain = 0
KAM1 130352Z 14008KT 06/M06 A3022 RMK A01 T00621063  RH  040%=      5-min Rain = 0
KAM1 130353Z 14009KT 06/M06 A3022 RMK A01 T00621063  RH  040%=      5-min Rain = 0
KAM1 130354Z 14008KT 06/M06 A3022 RMK A01 T00611063  RH  040%=      5-min Rain = 0
KAM1 130355Z 14010KT 06/M06 A3022 RMK A01 T00621062  RH  041%=      5-min Rain = 0
KAM1 130356Z 14008KT 06/M06 A3022 RMK A01 T00621063  RH  041%=      5-min Rain = 0
KAM1 130357Z 14009KT 06/M06 A3022 RMK A01 T00621063  RH  041%=      5-min Rain = 0
KAM1 130358Z 14008KT 06/M06 A3022 RMK A01 T00611063  RH  041%=      5-min Rain = 0
KAM1 130359Z 14008KT 06/M06 A3022 RMK A01 T00611063  RH  041%=      5-min Rain = 0
KAM1 130400Z 14008KT 06/M06 A3022 RMK A01 T00611063  RH  041%=      5-min Rain = 0
KAM1 130401Z 14009KT 06/M06 A3022 RMK A01 T00601063  RH  041%=      5-min Rain = 0
KAM1 130402Z 14009KT 06/M06 A3022 RMK A01 T00601063  RH  041%=      5-min Rain = 0
KAM1 130403Z 14008KT 06/M06 A3022 RMK A01 T00601063  RH  041%=      5-min Rain = 0
KAM1 130404Z 14009KT 06/M06 A3022 RMK A01 T00601063  RH  041%=      5-min Rain = 0
KAM1 130405Z 14009KT 06/M06 A3022 RMK A01 T00601063  RH  041%=      5-min Rain = 0
KAM1 130406Z 14008KT 06/M06 A3022 RMK A01 T00601063  RH  041%=      5-min Rain = 0
KAM1 130407Z 14009KT 06/M06 A3022 RMK A01 T00591063  RH  041%=      5-min Rain = 0
KAM1 130408Z 14008KT 06/M06 A3022 RMK A01 T00591063  RH  041%=      5-min Rain = 0
KAM1 130409Z 14009KT 06/M06 A3022 RMK A01 T00581064  RH  041%=      5-min Rain = 0
KAM1 130410Z 14009KT 06/M06 A3022 RMK A01 T00581064  RH  041%=      5-min Rain = 0
KAM1 130411Z 14008KT 06/M06 A3022 RMK A01 T00581064  RH  041%=      5-min Rain = 0
KAM1 130412Z 14008KT 06/M06 A3022 RMK A01 T00581064  RH  041%=      5-min Rain = 0
KAM1 130413Z 14008KT 06/M06 A3022 RMK A01 T00571064  RH  041%=      5-min Rain = 0
KAM1 130414Z 14008KT 06/M06 A3022 RMK A01 T00571064  RH  041%=      5-min Rain = 0
KAM1 130415Z 14008KT 06/M06 A3022 RMK A01 T00571064  RH  042%=      5-min Rain = 0
KAM1 130416Z 14009KT 06/M06 A3022 RMK A01 T00571064  RH  042%=      5-min Rain = 0
KAM1 130417Z 14008KT 06/M06 A3022 RMK A01 T00571064  RH  042%=      5-min Rain = 0
KAM1 130418Z 14007KT 06/M06 A3022 RMK A01 T00561064  RH  042%=      5-min Rain = 0
KAM1 130419Z 15008KT 06/M06 A3022 RMK A01 T00561064  RH  042%=      5-min Rain = 0
KAM1 130420Z 14008KT 06/M07 A3022 RMK A01 T00551065  RH  042%=      5-min Rain = 0
KAM1 130421Z 14008KT 06/M06 A3022 RMK A01 T00551064  RH  042%=      5-min Rain = 0
KAM1 130422Z 15008KT 06/M06 A3022 RMK A01 T00551064  RH  042%=      5-min Rain = 0
KAM1 130423Z 14008KT 06/M06 A3022 RMK A01 T00551064  RH  042%=      5-min Rain = 0
KAM1 130424Z 15008KT 06/M06 A3022 RMK A01 T00551064  RH  042%=      5-min Rain = 0
KAM1 130425Z 15008KT 06/M06 A3022 RMK A01 T00551063  RH  042%=      5-min Rain = 0
KAM1 130426Z 15008KT 06/M06 A3022 RMK A01 T00551064  RH  042%=      5-min Rain = 0
KAM1 130427Z 14008KT 05/M07 A3022 RMK A01 T00541065  RH  042%=      5-min Rain = 0
KAM1 130428Z 15009KT 05/M07 A3022 RMK A01 T00531065  RH  042%=      5-min Rain = 0
KAM1 130429Z 15008KT 05/M07 A3022 RMK A01 T00521066  RH  042%=      5-min Rain = 0
KAM1 130430Z 14008KT 05/M07 A3022 RMK A01 T00521066  RH  042%=      5-min Rain = 0
KAM1 130431Z 14008KT 05/M07 A3022 RMK A01 T00521065  RH  042%=      5-min Rain = 0
KAM1 130432Z 14008KT 05/M07 A3022 RMK A01 T00521065  RH  043%=      5-min Rain = 0
KAM1 130433Z 15008KT 05/M06 A3022 RMK A01 T00521064  RH  043%=      5-min Rain = 0
KAM1 130434Z 15008KT 05/M06 A3022 RMK A01 T00521064  RH  043%=      5-min Rain = 0
KAM1 130435Z 14008KT 05/M06 A3022 RMK A01 T00521064  RH  043%=      5-min Rain = 0
KAM1 130436Z 14008KT 05/M06 A3022 RMK A01 T00531064  RH  043%=      5-min Rain = 0
KAM1 130437Z 14008KT 05/M06 A3022 RMK A01 T00531063  RH  043%=      5-min Rain = 0
KAM1 130438Z 15008KT 05/M06 A3022 RMK A01 T00531063  RH  043%=      5-min Rain = 0
KAM1 130439Z 15009KT 05/M06 A3022 RMK A01 T00531063  RH  043%=      5-min Rain = 0
KAM1 130440Z 15008KT 05/M06 A3022 RMK A01 T00531064  RH  043%=      5-min Rain = 0
KAM1 130441Z 15009KT 05/M06 A3022 RMK A01 T00531064  RH  043%=      5-min Rain = 0
KAM1 130442Z 15009KT 05/M06 A3022 RMK A01 T00531064  RH  043%=      5-min Rain = 0
KAM1 130443Z 15009KT 05/M06 A3022 RMK A01 T00531064  RH  042%=      5-min Rain = 0
KAM1 130444Z 15009KT 05/M07 A3022 RMK A01 T00521065  RH  042%=      5-min Rain = 0
KAM1 130445Z 15008KT 05/M07 A3022 RMK A01 T00511066  RH  043%=      5-min Rain = 0
KAM1 130446Z 15009KT 05/M07 A3022 RMK A01 T00511066  RH  043%=      5-min Rain = 0
KAM1 130447Z 15009KT 05/M07 A3022 RMK A01 T00501066  RH  043%=      5-min Rain = 0
KAM1 130448Z 15009KT 05/M07 A3022 RMK A01 T00501066  RH  043%=      5-min Rain = 0
KAM1 130449Z 15009KT 05/M07 A3022 RMK A01 T00501066  RH  043%=      5-min Rain = 0
KAM1 130450Z 15008KT 05/M07 A3022 RMK A01 T00501065  RH  043%=      5-min Rain = 0
KAM1 130451Z 15009KT 05/M07 A3022 RMK A01 T00501065  RH  043%=      5-min Rain = 0
KAM1 130452Z 15008KT 05/M07 A3022 RMK A01 T00501065  RH  043%=      5-min Rain = 0
KAM1 130453Z 15008KT 05/M06 A3022 RMK A01 T00501064  RH  043%=      5-min Rain = 0
KAM1 130454Z 14009KT 05/M06 A3022 RMK A01 T00511064  RH  043%=      5-min Rain = 0
KAM1 130455Z 15009KT 05/M06 A3022 RMK A01 T00511064  RH  043%=      5-min Rain = 0
KAM1 130456Z 15008KT 05/M06 A3022 RMK A01 T00521064  RH  043%=      5-min Rain = 0
KAM1 130457Z 15009KT 05/M06 A3022 RMK A01 T00511064  RH  043%=      5-min Rain = 0
KAM1 130458Z 15008KT 05/M06 A3022 RMK A01 T00511064  RH  043%=      5-min Rain = 0
KAM1 130459Z 15008KT 05/M06 A3022 RMK A01 T00511064  RH  043%=      5-min Rain = 0

Page generated in 0.1444 seconds.